Observation data for Fritch on 05/15/2018      Previous  Date  Next       Current Mesonet Observations  Soil Data  Daily Summary Page  Observations in Plain Language
KFR1 150500Z 14017G22KT 21/09 A2992 RMK A01 T02100086  RH  045%=      5-min Rain = 0
KFR1 150501Z 15012G17KT 21/09 A2992 RMK A01 T02110086  RH  045%=      5-min Rain = 0
KFR1 150502Z 14014KT 21/09 A2992 RMK A01 T02110086  RH  045%=      5-min Rain = 0
KFR1 150503Z 15013KT 21/09 A2992 RMK A01 T02110086  RH  045%=      5-min Rain = 0
KFR1 150504Z 15013G20KT 21/09 A2992 RMK A01 T02100087  RH  045%=      5-min Rain = 0
KFR1 150505Z 15011G18KT 21/09 A2992 RMK A01 T02100087  RH  045%=      5-min Rain = 0
KFR1 150506Z 15013KT 21/09 A2992 RMK A01 T02100087  RH  045%=      5-min Rain = 0
KFR1 150507Z 15012KT 21/09 A2992 RMK A01 T02090088  RH  046%=      5-min Rain = 0
KFR1 150508Z 14011G16KT 21/09 A2992 RMK A01 T02090088  RH  046%=      5-min Rain = 0
KFR1 150509Z 15011KT 21/09 A2992 RMK A01 T02090088  RH  046%=      5-min Rain = 0
KFR1 150510Z 15012KT 21/09 A2992 RMK A01 T02080088  RH  046%=      5-min Rain = 0
KFR1 150511Z 15010KT 21/09 A2992 RMK A01 T02080089  RH  046%=      5-min Rain = 0
KFR1 150512Z 15009G14KT 21/09 A2992 RMK A01 T02070088  RH  046%=      5-min Rain = 0
KFR1 150513Z 15013KT 21/09 A2992 RMK A01 T02070088  RH  047%=      5-min Rain = 0
KFR1 150514Z 16011KT 21/09 A2992 RMK A01 T02060088  RH  047%=      5-min Rain = 0
KFR1 150515Z 15010G15KT 21/09 A2992 RMK A01 T02060089  RH  047%=      5-min Rain = 0
KFR1 150516Z 16012KT 21/09 A2992 RMK A01 T02060089  RH  047%=      5-min Rain = 0
KFR1 150517Z 16012KT 21/09 A2992 RMK A01 T02050089  RH  047%=      5-min Rain = 0
KFR1 150518Z 16019G24KT 21/09 A2992 RMK A01 T02050089  RH  047%=      5-min Rain = 0
KFR1 150519Z 16015KT 21/09 A2992 RMK A01 T02060089  RH  047%=      5-min Rain = 0
KFR1 150520Z 16015KT 21/09 A2992 RMK A01 T02070089  RH  047%=      5-min Rain = 0
KFR1 150521Z 16017G22KT 21/09 A2992 RMK A01 T02070088  RH  046%=      5-min Rain = 0
KFR1 150522Z 17019G24KT 21/09 A2992 RMK A01 T02080088  RH  046%=      5-min Rain = 0
KFR1 150523Z 16018KT 21/09 A2992 RMK A01 T02090088  RH  046%=      5-min Rain = 0
KFR1 150524Z 16019KT 21/09 A2992 RMK A01 T02100088  RH  045%=      5-min Rain = 0
KFR1 150525Z 16018KT 21/09 A2992 RMK A01 T02110087  RH  045%=      5-min Rain = 0
KFR1 150526Z 16019KT 21/09 A2992 RMK A01 T02120086  RH  045%=      5-min Rain = 0
KFR1 150527Z 17016G22KT 21/09 A2992 RMK A01 T02120086  RH  044%=      5-min Rain = 0
KFR1 150528Z 16016G22KT 21/09 A2992 RMK A01 T02130086  RH  044%=      5-min Rain = 0
KFR1 150529Z 16018G25KT 21/09 A2992 RMK A01 T02130085  RH  044%=      5-min Rain = 0
KFR1 150530Z 16017G22KT 21/08 A2991 RMK A01 T02140084  RH  043%=      5-min Rain = 0
KFR1 150531Z 17017G22KT 21/08 A2992 RMK A01 T02140084  RH  043%=      5-min Rain = 0
KFR1 150532Z 16017KT 21/08 A2992 RMK A01 T02140084  RH  043%=      5-min Rain = 0
KFR1 150533Z 16016G21KT 21/08 A2992 RMK A01 T02140084  RH  043%=      5-min Rain = 0
KFR1 150534Z 16017KT 21/08 A2992 RMK A01 T02140084  RH  043%=      5-min Rain = 0
KFR1 150535Z 16016G21KT 21/08 A2992 RMK A01 T02140084  RH  043%=      5-min Rain = 0
KFR1 150536Z 16016G21KT 22/08 A2992 RMK A01 T02150084  RH  043%=      5-min Rain = 0
KFR1 150537Z 16016KT 22/09 A2992 RMK A01 T02150085  RH  043%=      5-min Rain = 0
KFR1 150538Z 16016G21KT 21/09 A2992 RMK A01 T02140085  RH  043%=      5-min Rain = 0
KFR1 150539Z 16017KT 21/09 A2992 RMK A01 T02140085  RH  043%=      5-min Rain = 0
KFR1 150540Z 17015KT 21/09 A2992 RMK A01 T02140085  RH  043%=      5-min Rain = 0
KFR1 150541Z 16015KT 21/08 A2992 RMK A01 T02140084  RH  043%=      5-min Rain = 0
KFR1 150542Z 16015KT 21/08 A2992 RMK A01 T02140084  RH  043%=      5-min Rain = 0
KFR1 150543Z 16017KT 22/08 A2992 RMK A01 T02150084  RH  043%=      5-min Rain = 0
KFR1 150544Z 16018KT 22/08 A2992 RMK A01 T02150084  RH  043%=      5-min Rain = 0
KFR1 150545Z 16015G21KT 22/09 A2992 RMK A01 T02150085  RH  043%=      5-min Rain = 0
KFR1 150546Z 16016G21KT 22/09 A2992 RMK A01 T02150085  RH  043%=      5-min Rain = 0
KFR1 150547Z 15013KT 22/09 A2992 RMK A01 T02150085  RH  043%=      5-min Rain = 0
KFR1 150548Z 16015KT 21/09 A2992 RMK A01 T02140086  RH  044%=      5-min Rain = 0
KFR1 150549Z 16013KT 21/09 A2992 RMK A01 T02130086  RH  044%=      5-min Rain = 0
KFR1 150550Z 16015KT 21/09 A2992 RMK A01 T02120087  RH  045%=      5-min Rain = 0
KFR1 150551Z 16015G20KT 21/09 A2992 RMK A01 T02110087  RH  045%=      5-min Rain = 0
KFR1 150552Z 16013KT 21/09 A2992 RMK A01 T02100088  RH  045%=      5-min Rain = 0
KFR1 150553Z 15014KT 21/09 A2992 RMK A01 T02100088  RH  046%=      5-min Rain = 0
KFR1 150554Z 16012KT 21/09 A2993 RMK A01 T02080088  RH  046%=      5-min Rain = 0
KFR1 150555Z 16011KT 21/09 A2993 RMK A01 T02080088  RH  046%=      5-min Rain = 0
KFR1 150556Z 16011KT 21/09 A2993 RMK A01 T02070088  RH  047%=      5-min Rain = 0
KFR1 150557Z 15012G17KT 21/09 A2993 RMK A01 T02060089  RH  047%=      5-min Rain = 0
KFR1 150558Z 15012KT 21/09 A2993 RMK A01 T02060089  RH  047%=      5-min Rain = 0
KFR1 150559Z 15009G16KT 21/09 A2993 RMK A01 T02050089  RH  047%=      5-min Rain = 0
KFR1 150600Z 15011KT 20/09 A2993 RMK A01 T02040089  RH  047%=      5-min Rain = 0
KFR1 150601Z 15010KT 20/09 A2993 RMK A01 T02040090  RH  048%=      5-min Rain = 0
KFR1 150602Z 14010G15KT 20/09 A2993 RMK A01 T02030089  RH  048%=      5-min Rain = 0
KFR1 150603Z 14011KT 20/09 A2993 RMK A01 T02030089  RH  048%=      5-min Rain = 0
KFR1 150604Z 15010KT 20/09 A2993 RMK A01 T02020089  RH  048%=      5-min Rain = 0
KFR1 150605Z 14011KT 20/09 A2993 RMK A01 T02020090  RH  048%=      5-min Rain = 0
KFR1 150606Z 14010KT 20/09 A2992 RMK A01 T02010089  RH  048%=      5-min Rain = 0
KFR1 150607Z 13010KT 20/09 A2992 RMK A01 T02020090  RH  049%=      5-min Rain = 0
KFR1 150608Z 14011KT 20/09 A2992 RMK A01 T02010090  RH  049%=      5-min Rain = 0
KFR1 150609Z 13010KT 20/09 A2992 RMK A01 T02010089  RH  049%=      5-min Rain = 0
KFR1 150610Z 14010KT 20/09 A2993 RMK A01 T02010090  RH  049%=      5-min Rain = 0
KFR1 150611Z 14009KT 20/09 A2993 RMK A01 T02010089  RH  049%=      5-min Rain = 0
KFR1 150612Z 14010KT 20/09 A2993 RMK A01 T02010090  RH  049%=      5-min Rain = 0
KFR1 150613Z 14009KT 20/09 A2993 RMK A01 T02010090  RH  049%=      5-min Rain = 0
KFR1 150614Z 15008KT 20/09 A2993 RMK A01 T02000090  RH  049%=      5-min Rain = 0
KFR1 150615Z 15009KT 20/09 A2993 RMK A01 T01990090  RH  049%=      5-min Rain = 0
KFR1 150616Z 15011G17KT 20/09 A2992 RMK A01 T01980090  RH  050%=      5-min Rain = 0
KFR1 150617Z 14009KT 20/09 A2992 RMK A01 T01970090  RH  050%=      5-min Rain = 0
KFR1 150618Z 14009KT 20/09 A2992 RMK A01 T01960090  RH  050%=      5-min Rain = 0
KFR1 150619Z 14010KT 20/09 A2992 RMK A01 T01960090  RH  050%=      5-min Rain = 0
KFR1 150620Z 14010KT 20/09 A2992 RMK A01 T01960090  RH  050%=      5-min Rain = 0
KFR1 150621Z 14011KT 20/09 A2992 RMK A01 T01960090  RH  051%=      5-min Rain = 0
KFR1 150622Z 15008KT 20/09 A2992 RMK A01 T01960090  RH  051%=      5-min Rain = 0
KFR1 150623Z 15008KT 20/09 A2993 RMK A01 T01960091  RH  051%=      5-min Rain = 0
KFR1 150624Z 15006KT 20/09 A2993 RMK A01 T01950090  RH  051%=      5-min Rain = 0
KFR1 150625Z 15009KT 19/09 A2993 RMK A01 T01940090  RH  051%=      5-min Rain = 0
KFR1 150626Z 14009KT 19/09 A2993 RMK A01 T01940090  RH  051%=      5-min Rain = 0
KFR1 150627Z 14009KT 19/09 A2993 RMK A01 T01940090  RH  051%=      5-min Rain = 0
KFR1 150628Z 14007KT 19/09 A2993 RMK A01 T01930090  RH  051%=      5-min Rain = 0
KFR1 150629Z 15008KT 19/09 A2993 RMK A01 T01940091  RH  051%=      5-min Rain = 0
KFR1 150630Z 15007G12KT 19/09 A2993 RMK A01 T01930090  RH  051%=      5-min Rain = 0
KFR1 150631Z 15007KT 19/09 A2993 RMK A01 T01930090  RH  051%=      5-min Rain = 0
KFR1 150632Z 15007KT 19/09 A2993 RMK A01 T01920090  RH  052%=      5-min Rain = 0
KFR1 150633Z 15007KT 19/09 A2993 RMK A01 T01920090  RH  052%=      5-min Rain = 0
KFR1 150634Z 16007KT 19/09 A2993 RMK A01 T01920090  RH  052%=      5-min Rain = 0
KFR1 150635Z 15008KT 19/09 A2993 RMK A01 T01920090  RH  052%=      5-min Rain = 0
KFR1 150636Z 15007KT 19/09 A2993 RMK A01 T01920090  RH  052%=      5-min Rain = 0
KFR1 150637Z 15007KT 19/09 A2993 RMK A01 T01920090  RH  051%=      5-min Rain = 0
KFR1 150638Z 16007KT 19/09 A2993 RMK A01 T01920090  RH  051%=      5-min Rain = 0
KFR1 150639Z 16006KT 19/09 A2993 RMK A01 T01920090  RH  051%=      5-min Rain = 0
KFR1 150640Z 15006KT 19/09 A2993 RMK A01 T01920090  RH  052%=      5-min Rain = 0
KFR1 150641Z 16006KT 19/09 A2993 RMK A01 T01920090  RH  052%=      5-min Rain = 0
KFR1 150642Z 16005KT 19/09 A2993 RMK A01 T01910090  RH  052%=      5-min Rain = 0
KFR1 150643Z 17005KT 19/09 A2993 RMK A01 T01910090  RH  052%=      5-min Rain = 0
KFR1 150644Z 16005KT 19/09 A2994 RMK A01 T01910090  RH  052%=      5-min Rain = 0
KFR1 150645Z 18004KT 19/09 A2994 RMK A01 T01900090  RH  052%=      5-min Rain = 0
KFR1 150646Z 17003KT 19/09 A2994 RMK A01 T01900090  RH  052%=      5-min Rain = 0
KFR1 150647Z 17004KT 19/09 A2994 RMK A01 T01890090  RH  052%=      5-min Rain = 0
KFR1 150648Z 16005KT 19/09 A2994 RMK A01 T01890090  RH  053%=      5-min Rain = 0
KFR1 150649Z 17002KT 19/09 A2994 RMK A01 T01890090  RH  053%=      5-min Rain = 0
KFR1 150650Z 17002KT 19/09 A2994 RMK A01 T01890090  RH  053%=      5-min Rain = 0
KFR1 150651Z 18002KT 19/09 A2994 RMK A01 T01890090  RH  053%=      5-min Rain = 0
KFR1 150652Z 20002KT 19/09 A2994 RMK A01 T01880090  RH  053%=      5-min Rain = 0
KFR1 150653Z 22003KT 19/09 A2994 RMK A01 T01870090  RH  053%=      5-min Rain = 0
KFR1 150654Z 23004KT 19/09 A2994 RMK A01 T01860090  RH  053%=      5-min Rain = 0
KFR1 150655Z 25004KT 19/09 A2994 RMK A01 T01850090  RH  054%=      5-min Rain = 0
KFR1 150656Z 26005KT 19/09 A2994 RMK A01 T01850091  RH  054%=      5-min Rain = 0
KFR1 150657Z 25005KT 19/09 A2994 RMK A01 T01850092  RH  054%=      5-min Rain = 0
KFR1 150658Z 25004KT 19/09 A2994 RMK A01 T01850091  RH  054%=      5-min Rain = 0
KFR1 150659Z 23003KT 19/09 A2994 RMK A01 T01850091  RH  054%=      5-min Rain = 0
KFR1 150700Z 23003KT 19/09 A2994 RMK A01 T01850090  RH  054%=      5-min Rain = 0
KFR1 150701Z 20003KT 19/09 A2994 RMK A01 T01850090  RH  054%=      5-min Rain = 0
KFR1 150702Z 19003KT 18/09 A2994 RMK A01 T01840090  RH  054%=      5-min Rain = 0
KFR1 150703Z 18004KT 18/09 A2994 RMK A01 T01830090  RH  055%=      5-min Rain = 0
KFR1 150704Z 18004KT 18/09 A2994 RMK A01 T01830090  RH  055%=      5-min Rain = 0
KFR1 150705Z 18004KT 18/09 A2994 RMK A01 T01830090  RH  055%=      5-min Rain = 0
KFR1 150706Z 19004KT 18/09 A2994 RMK A01 T01820090  RH  055%=      5-min Rain = 0
KFR1 150707Z 20004KT 18/09 A2994 RMK A01 T01810090  RH  055%=      5-min Rain = 0
KFR1 150708Z 20004KT 18/09 A2994 RMK A01 T01800090  RH  055%=      5-min Rain = 0
KFR1 150709Z 21004KT 18/09 A2994 RMK A01 T01800090  RH  056%=      5-min Rain = 0
KFR1 150710Z 21004KT 18/09 A2995 RMK A01 T01790090  RH  056%=      5-min Rain = 0
KFR1 150711Z 22005KT 18/09 A2995 RMK A01 T01790090  RH  056%=      5-min Rain = 0
KFR1 150712Z 21005KT 18/09 A2995 RMK A01 T01790090  RH  056%=      5-min Rain = 0
KFR1 150713Z 21004KT 18/09 A2995 RMK A01 T01780089  RH  056%=      5-min Rain = 0
KFR1 150714Z 21005KT 18/09 A2995 RMK A01 T01780090  RH  056%=      5-min Rain = 0
KFR1 150715Z 21005KT 18/09 A2995 RMK A01 T01780090  RH  056%=      5-min Rain = 0
KFR1 150716Z 21006KT 18/09 A2995 RMK A01 T01780090  RH  056%=      5-min Rain = 0
KFR1 150717Z 20007KT 18/09 A2995 RMK A01 T01780090  RH  056%=      5-min Rain = 0
KFR1 150718Z 20007KT 18/09 A2995 RMK A01 T01780091  RH  056%=      5-min Rain = 0
KFR1 150719Z 19007KT 18/09 A2995 RMK A01 T01790091  RH  056%=      5-min Rain = 0
KFR1 150720Z 19007KT 18/09 A2994 RMK A01 T01800091  RH  056%=      5-min Rain = 0
KFR1 150721Z 19007KT 18/09 A2994 RMK A01 T01800091  RH  056%=      5-min Rain = 0
KFR1 150722Z 18008KT 18/09 A2994 RMK A01 T01800091  RH  056%=      5-min Rain = 0
KFR1 150723Z 18007KT 18/09 A2994 RMK A01 T01800091  RH  056%=      5-min Rain = 0
KFR1 150724Z 19009KT 18/09 A2994 RMK A01 T01810091  RH  056%=      5-min Rain = 0
KFR1 150725Z 19009KT 18/09 A2994 RMK A01 T01810092  RH  056%=      5-min Rain = 0
KFR1 150726Z 18009KT 18/09 A2994 RMK A01 T01810092  RH  056%=      5-min Rain = 0
KFR1 150727Z 18009KT 18/09 A2994 RMK A01 T01820092  RH  056%=      5-min Rain = 0
KFR1 150728Z 18007KT 18/09 A2994 RMK A01 T01830093  RH  056%=      5-min Rain = 0
KFR1 150729Z 18008KT 18/09 A2994 RMK A01 T01830093  RH  055%=      5-min Rain = 0
KFR1 150730Z 18008KT 18/09 A2994 RMK A01 T01840093  RH  055%=      5-min Rain = 0
KFR1 150731Z 18008KT 18/09 A2994 RMK A01 T01840093  RH  055%=      5-min Rain = 0
KFR1 150732Z 17008KT 18/09 A2993 RMK A01 T01840094  RH  055%=      5-min Rain = 0
KFR1 150733Z 17009KT 18/09 A2993 RMK A01 T01840094  RH  056%=      5-min Rain = 0
KFR1 150734Z 17008KT 18/09 A2993 RMK A01 T01840093  RH  056%=      5-min Rain = 0
KFR1 150735Z 16010KT 18/09 A2993 RMK A01 T01840094  RH  056%=      5-min Rain = 0
KFR1 150736Z 16010KT 18/09 A2993 RMK A01 T01840094  RH  056%=      5-min Rain = 0
KFR1 150737Z 16009KT 19/10 A2993 RMK A01 T01850095  RH  056%=      5-min Rain = 0
KFR1 150738Z 16010KT 19/10 A2993 RMK A01 T01850095  RH  056%=      5-min Rain = 0
KFR1 150739Z 17010KT 19/10 A2993 RMK A01 T01850095  RH  056%=      5-min Rain = 0
KFR1 150740Z 18007KT 19/10 A2993 RMK A01 T01850095  RH  056%=      5-min Rain = 0
KFR1 150741Z 18007KT 18/10 A2993 RMK A01 T01840095  RH  056%=      5-min Rain = 0
KFR1 150742Z 18008KT 18/10 A2993 RMK A01 T01840096  RH  056%=      5-min Rain = 0
KFR1 150743Z 17007KT 18/10 A2993 RMK A01 T01840096  RH  056%=      5-min Rain = 0
KFR1 150744Z 17008KT 18/10 A2993 RMK A01 T01840096  RH  057%=      5-min Rain = 0
KFR1 150745Z 18007KT 18/10 A2992 RMK A01 T01830096  RH  057%=      5-min Rain = 0
KFR1 150746Z 17008KT 18/10 A2992 RMK A01 T01830097  RH  057%=      5-min Rain = 0
KFR1 150747Z 17009KT 18/10 A2992 RMK A01 T01830098  RH  057%=      5-min Rain = 0
KFR1 150748Z 17008KT 18/10 A2992 RMK A01 T01830098  RH  057%=      5-min Rain = 0
KFR1 150749Z 18007KT 18/10 A2992 RMK A01 T01840098  RH  057%=      5-min Rain = 0
KFR1 150750Z 18008KT 18/10 A2992 RMK A01 T01840098  RH  057%=      5-min Rain = 0
KFR1 150751Z 19008KT 18/10 A2992 RMK A01 T01840099  RH  058%=      5-min Rain = 0
KFR1 150752Z 18009KT 18/10 A2992 RMK A01 T01840099  RH  058%=      5-min Rain = 0
KFR1 150753Z 18009KT 18/10 A2992 RMK A01 T01840100  RH  058%=      5-min Rain = 0
KFR1 150754Z 18008KT 19/10 A2992 RMK A01 T01850100  RH  058%=      5-min Rain = 0
KFR1 150755Z 18008KT 19/10 A2992 RMK A01 T01850100  RH  058%=      5-min Rain = 0
KFR1 150756Z 18008KT 19/10 A2992 RMK A01 T01850100  RH  058%=      5-min Rain = 0
KFR1 150757Z 19008KT 19/10 A2992 RMK A01 T01850100  RH  058%=      5-min Rain = 0
KFR1 150758Z 19008KT 19/10 A2992 RMK A01 T01850101  RH  058%=      5-min Rain = 0
KFR1 150759Z 20007KT 19/10 A2993 RMK A01 T01850101  RH  058%=      5-min Rain = 0
KFR1 150800Z 20006KT 19/10 A2993 RMK A01 T01850101  RH  058%=      5-min Rain = 0
KFR1 150801Z 20007KT 19/10 A2993 RMK A01 T01860102  RH  058%=      5-min Rain = 0
KFR1 150802Z 19005KT 19/10 A2993 RMK A01 T01860102  RH  058%=      5-min Rain = 0
KFR1 150803Z 19004KT 19/10 A2993 RMK A01 T01860102  RH  058%=      5-min Rain = 0
KFR1 150804Z 18007KT 19/10 A2992 RMK A01 T01850102  RH  058%=      5-min Rain = 0
KFR1 150805Z 19005KT 19/10 A2992 RMK A01 T01850102  RH  059%=      5-min Rain = 0
KFR1 150806Z 20006KT 19/10 A2993 RMK A01 T01850103  RH  059%=      5-min Rain = 0
KFR1 150807Z 21007KT 19/10 A2993 RMK A01 T01850103  RH  059%=      5-min Rain = 0
KFR1 150808Z 21006KT 19/10 A2993 RMK A01 T01850103  RH  059%=      5-min Rain = 0
KFR1 150809Z 20007KT 19/10 A2993 RMK A01 T01850103  RH  059%=      5-min Rain = 0
KFR1 150810Z 20006KT 18/10 A2993 RMK A01 T01840104  RH  059%=      5-min Rain = 0
KFR1 150811Z 20007KT 18/10 A2993 RMK A01 T01840104  RH  059%=      5-min Rain = 0
KFR1 150812Z 20006KT 18/10 A2993 RMK A01 T01840104  RH  059%=      5-min Rain = 0
KFR1 150813Z 19006KT 18/10 A2993 RMK A01 T01840104  RH  059%=      5-min Rain = 0
KFR1 150814Z 19006KT 19/10 A2993 RMK A01 T01850104  RH  059%=      5-min Rain = 0
KFR1 150815Z 20006KT 18/10 A2993 RMK A01 T01840104  RH  060%=      5-min Rain = 0
KFR1 150816Z 19004KT 18/10 A2993 RMK A01 T01840104  RH  060%=      5-min Rain = 0
KFR1 150817Z 19005KT 18/10 A2993 RMK A01 T01840104  RH  060%=      5-min Rain = 0
KFR1 150818Z 20006KT 18/10 A2993 RMK A01 T01830104  RH  060%=      5-min Rain = 0
KFR1 150819Z 20007KT 18/10 A2993 RMK A01 T01830104  RH  060%=      5-min Rain = 0
KFR1 150820Z 21006KT 18/11 A2993 RMK A01 T01830105  RH  060%=      5-min Rain = 0
KFR1 150821Z 20006KT 18/11 A2993 RMK A01 T01830105  RH  060%=      5-min Rain = 0
KFR1 150822Z 19006KT 18/11 A2993 RMK A01 T01840105  RH  060%=      5-min Rain = 0
KFR1 150823Z 20005KT 18/11 A2993 RMK A01 T01830105  RH  060%=      5-min Rain = 0
KFR1 150824Z 19006KT 18/11 A2993 RMK A01 T01830105  RH  060%=      5-min Rain = 0
KFR1 150825Z 18006KT 18/11 A2993 RMK A01 T01830105  RH  060%=      5-min Rain = 0
KFR1 150826Z 18006KT 18/11 A2993 RMK A01 T01820105  RH  061%=      5-min Rain = 0
KFR1 150827Z 18005KT 18/11 A2993 RMK A01 T01830106  RH  061%=      5-min Rain = 0
KFR1 150828Z 18004KT 18/11 A2993 RMK A01 T01830105  RH  061%=      5-min Rain = 0
KFR1 150829Z 18004KT 18/11 A2993 RMK A01 T01830105  RH  061%=      5-min Rain = 0
KFR1 150830Z 17003KT 18/11 A2993 RMK A01 T01820106  RH  061%=      5-min Rain = 0
KFR1 150831Z 17002KT 18/11 A2994 RMK A01 T01820106  RH  061%=      5-min Rain = 0
KFR1 150832Z 10002KT 18/11 A2994 RMK A01 T01820106  RH  061%=      5-min Rain = 0
KFR1 150833Z 09003KT 18/11 A2994 RMK A01 T01820106  RH  061%=      5-min Rain = 0
KFR1 150834Z 03005KT 18/11 A2994 RMK A01 T01810105  RH  061%=      5-min Rain = 0
KFR1 150835Z 03007KT 18/11 A2995 RMK A01 T01800105  RH  061%=      5-min Rain = 0
KFR1 150836Z 03008KT 18/11 A2995 RMK A01 T01780105  RH  062%=      5-min Rain = 0
KFR1 150837Z 03008KT 18/10 A2996 RMK A01 T01760104  RH  063%=      5-min Rain = 0
KFR1 150838Z 04007KT 18/11 A2996 RMK A01 T01750105  RH  063%=      5-min Rain = 0
KFR1 150839Z 04008KT 18/11 A2996 RMK A01 T01750105  RH  064%=      5-min Rain = 0
KFR1 150840Z 04009KT 18/11 A2996 RMK A01 T01750106  RH  064%=      5-min Rain = 0
KFR1 150841Z 04013KT 18/11 A2996 RMK A01 T01780106  RH  063%=      5-min Rain = 0
KFR1 150842Z 04013KT 18/11 A2997 RMK A01 T01800106  RH  062%=      5-min Rain = 0
KFR1 150843Z 04014KT 18/11 A2997 RMK A01 T01810105  RH  061%=      5-min Rain = 0
KFR1 150844Z 04015KT 18/11 A2997 RMK A01 T01830106  RH  060%=      5-min Rain = 0
KFR1 150845Z 04015KT 18/11 A2997 RMK A01 T01840105  RH  060%=      5-min Rain = 0
KFR1 150846Z 04012G17KT 19/11 A2997 RMK A01 T01860105  RH  059%=      5-min Rain = 0
KFR1 150847Z 04009KT 19/11 A2997 RMK A01 T01870105  RH  059%=      5-min Rain = 0
KFR1 150848Z 04007KT 19/11 A2997 RMK A01 T01880105  RH  059%=      5-min Rain = 0
KFR1 150849Z 04007KT 19/11 A2997 RMK A01 T01870105  RH  059%=      5-min Rain = 0
KFR1 150850Z 03009KT 19/11 A2996 RMK A01 T01870105  RH  059%=      5-min Rain = 0
KFR1 150851Z 05006KT 19/11 A2996 RMK A01 T01890105  RH  058%=      5-min Rain = 0
KFR1 150852Z 07006KT 19/11 A2996 RMK A01 T01900105  RH  058%=      5-min Rain = 0
KFR1 150853Z 05009KT 19/11 A2995 RMK A01 T01900105  RH  057%=      5-min Rain = 0
KFR1 150854Z 04007KT 19/11 A2995 RMK A01 T01910105  RH  057%=      5-min Rain = 0
KFR1 150855Z 04003KT 19/10 A2995 RMK A01 T01910104  RH  057%=      5-min Rain = 0
KFR1 150856Z 04003KT 19/11 A2996 RMK A01 T01900105  RH  058%=      5-min Rain = 0
KFR1 150857Z 12002KT 19/11 A2996 RMK A01 T01890105  RH  058%=      5-min Rain = 0
KFR1 150858Z 06002KT 19/11 A2996 RMK A01 T01880105  RH  059%=      5-min Rain = 0
KFR1 150859Z 05003KT 19/11 A2996 RMK A01 T01870105  RH  059%=      5-min Rain = 0
KFR1 150900Z 09005KT 19/11 A2996 RMK A01 T01870107  RH  060%=      5-min Rain = 0
KFR1 150901Z 11008KT 19/11 A2997 RMK A01 T01880109  RH  060%=      5-min Rain = 0
KFR1 150902Z 09009KT 19/11 A2997 RMK A01 T01890114  RH  061%=      5-min Rain = 0
KFR1 150903Z 09008KT 19/11 A2997 RMK A01 T01910114  RH  061%=      5-min Rain = 0
KFR1 150904Z 06008KT 19/12 A2997 RMK A01 T01920115  RH  061%=      5-min Rain = 0
KFR1 150905Z 06007KT 19/12 A2997 RMK A01 T01920117  RH  062%=      5-min Rain = 0
KFR1 150906Z 07006KT 19/12 A2997 RMK A01 T01930116  RH  061%=      5-min Rain = 0
KFR1 150907Z 07006KT 19/12 A2997 RMK A01 T01930118  RH  062%=      5-min Rain = 0
KFR1 150908Z 06005KT 19/12 A2998 RMK A01 T01940118  RH  062%=      5-min Rain = 0
KFR1 150909Z 07005KT 20/12 A2997 RMK A01 T01950118  RH  061%=      5-min Rain = 0
KFR1 150910Z 09007KT 20/12 A2998 RMK A01 T01950118  RH  061%=      5-min Rain = 0
KFR1 150911Z 08006KT 20/12 A2997 RMK A01 T01950121  RH  062%=      5-min Rain = 0
KFR1 150912Z 09009KT 20/12 A2997 RMK A01 T01950123  RH  063%=      5-min Rain = 0
KFR1 150913Z 09009KT 20/12 A2997 RMK A01 T01970124  RH  063%=      5-min Rain = 0
KFR1 150914Z 09010KT 20/12 A2997 RMK A01 T01980123  RH  062%=      5-min Rain = 0
KFR1 150915Z 09008KT 20/12 A2997 RMK A01 T01990122  RH  061%=      5-min Rain = 0
KFR1 150916Z 10009KT 20/12 A2997 RMK A01 T01990123  RH  062%=      5-min Rain = 0
KFR1 150917Z 11008KT 20/12 A2997 RMK A01 T01990123  RH  062%=      5-min Rain = 0
KFR1 150918Z 11008KT 20/12 A2997 RMK A01 T01990123  RH  062%=      5-min Rain = 0
KFR1 150919Z 12008KT 20/12 A2997 RMK A01 T01990124  RH  062%=      5-min Rain = 0
KFR1 150920Z 11008KT 20/12 A2997 RMK A01 T01990123  RH  062%=      5-min Rain = 0
KFR1 150921Z 11008KT 20/12 A2997 RMK A01 T01980124  RH  062%=      5-min Rain = 0
KFR1 150922Z 11008KT 20/12 A2997 RMK A01 T01980124  RH  063%=      5-min Rain = 0
KFR1 150923Z 11009KT 20/12 A2997 RMK A01 T01970124  RH  063%=      5-min Rain = 0
KFR1 150924Z 09009KT 20/12 A2997 RMK A01 T01970124  RH  062%=      5-min Rain = 0
KFR1 150925Z 09009KT 20/12 A2997 RMK A01 T01980124  RH  062%=      5-min Rain = 0
KFR1 150926Z 08008KT 20/12 A2997 RMK A01 T01990124  RH  062%=      5-min Rain = 0
KFR1 150927Z 07009KT 20/12 A2997 RMK A01 T01990123  RH  062%=      5-min Rain = 0
KFR1 150928Z 06008KT 20/12 A2998 RMK A01 T01990122  RH  061%=      5-min Rain = 0
KFR1 150929Z 06009KT 20/12 A2998 RMK A01 T02000121  RH  061%=      5-min Rain = 0
KFR1 150930Z 06006KT 20/12 A2998 RMK A01 T01990120  RH  060%=      5-min Rain = 0
KFR1 150931Z 07006KT 20/12 A2998 RMK A01 T02000120  RH  060%=      5-min Rain = 0
KFR1 150932Z 07006KT 20/12 A2998 RMK A01 T01990119  RH  060%=      5-min Rain = 0
KFR1 150933Z 07006KT 20/12 A2998 RMK A01 T01990118  RH  060%=      5-min Rain = 0
KFR1 150934Z 07006KT 20/12 A2997 RMK A01 T01980118  RH  060%=      5-min Rain = 0
KFR1 150935Z 08005KT 20/12 A2997 RMK A01 T01970117  RH  060%=      5-min Rain = 0
KFR1 150936Z 10007KT 20/12 A2997 RMK A01 T01960116  RH  060%=      5-min Rain = 0
KFR1 150937Z 11007KT 20/12 A2997 RMK A01 T01950117  RH  061%=      5-min Rain = 0
KFR1 150938Z 12007KT 19/12 A2997 RMK A01 T01940117  RH  061%=      5-min Rain = 0
KFR1 150939Z 12008KT 19/12 A2997 RMK A01 T01930117  RH  061%=      5-min Rain = 0
KFR1 150940Z 12009KT 19/12 A2997 RMK A01 T01940119  RH  062%=      5-min Rain = 0
KFR1 150941Z 12010KT 19/12 A2997 RMK A01 T01940119  RH  062%=      5-min Rain = 0
KFR1 150942Z 13009KT 20/12 A2996 RMK A01 T01950120  RH  062%=      5-min Rain = 0
KFR1 150943Z 13007KT 20/12 A2996 RMK A01 T01950121  RH  062%=      5-min Rain = 0
KFR1 150944Z 13006KT 20/12 A2997 RMK A01 T01950121  RH  062%=      5-min Rain = 0
KFR1 150945Z 12007KT 19/12 A2997 RMK A01 T01940121  RH  062%=      5-min Rain = 0
KFR1 150946Z 11006KT 19/12 A2997 RMK A01 T01930121  RH  063%=      5-min Rain = 0
KFR1 150947Z 11007KT 19/12 A2997 RMK A01 T01920121  RH  064%=      5-min Rain = 0
KFR1 150948Z 10006KT 19/12 A2997 RMK A01 T01910121  RH  064%=      5-min Rain = 0
KFR1 150949Z 09006KT 19/12 A2997 RMK A01 T01900121  RH  064%=      5-min Rain = 0
KFR1 150950Z 08007KT 19/12 A2997 RMK A01 T01900121  RH  064%=      5-min Rain = 0
KFR1 150951Z 05006KT 19/12 A2997 RMK A01 T01910121  RH  064%=      5-min Rain = 0
KFR1 150952Z 06005KT 19/12 A2997 RMK A01 T01910120  RH  063%=      5-min Rain = 0
KFR1 150953Z 07005KT 19/12 A2997 RMK A01 T01900120  RH  064%=      5-min Rain = 0
KFR1 150954Z 07005KT 19/12 A2997 RMK A01 T01890119  RH  063%=      5-min Rain = 0
KFR1 150955Z 08004KT 19/12 A2997 RMK A01 T01900117  RH  063%=      5-min Rain = 0
KFR1 150956Z 08007KT 19/12 A2997 RMK A01 T01890117  RH  063%=      5-min Rain = 0
KFR1 150957Z 09006KT 19/12 A2997 RMK A01 T01890115  RH  062%=      5-min Rain = 0
KFR1 150958Z 09006KT 19/12 A2997 RMK A01 T01880115  RH  062%=      5-min Rain = 0
KFR1 150959Z 10006KT 19/11 A2997 RMK A01 T01880114  RH  062%=      5-min Rain = 0
KFR1 151000Z 10006KT 19/12 A2997 RMK A01 T01880115  RH  062%=      5-min Rain = 0
KFR1 151001Z 11006KT 19/11 A2997 RMK A01 T01880114  RH  062%=      5-min Rain = 0
KFR1 151002Z 11006KT 19/11 A2997 RMK A01 T01870114  RH  063%=      5-min Rain = 0
KFR1 151003Z 10007KT 19/11 A2997 RMK A01 T01870114  RH  063%=      5-min Rain = 0
KFR1 151004Z 10006KT 19/11 A2997 RMK A01 T01870114  RH  063%=      5-min Rain = 0
KFR1 151005Z 09007KT 19/11 A2997 RMK A01 T01850113  RH  063%=      5-min Rain = 0
KFR1 151006Z 08008KT 19/11 A2997 RMK A01 T01850113  RH  063%=      5-min Rain = 0
KFR1 151007Z 07007KT 19/11 A2997 RMK A01 T01850113  RH  063%=      5-min Rain = 0
KFR1 151008Z 08008KT 19/11 A2997 RMK A01 T01850112  RH  063%=      5-min Rain = 0
KFR1 151009Z 08010KT 19/11 A2997 RMK A01 T01850111  RH  062%=      5-min Rain = 0
KFR1 151010Z 08009KT 18/11 A2997 RMK A01 T01830110  RH  062%=      5-min Rain = 0
KFR1 151011Z 08009KT 18/11 A2997 RMK A01 T01820109  RH  062%=      5-min Rain = 0
KFR1 151012Z 08011KT 18/11 A2997 RMK A01 T01810108  RH  062%=      5-min Rain = 0
KFR1 151013Z 08009KT 18/11 A2997 RMK A01 T01800107  RH  062%=      5-min Rain = 0
KFR1 151014Z 09008KT 18/11 A2997 RMK A01 T01800107  RH  062%=      5-min Rain = 0
KFR1 151015Z 09007KT 18/11 A2997 RMK A01 T01800107  RH  062%=      5-min Rain = 0
KFR1 151016Z 09008KT 18/11 A2997 RMK A01 T01800106  RH  062%=      5-min Rain = 0
KFR1 151017Z 09006KT 18/11 A2997 RMK A01 T01800107  RH  062%=      5-min Rain = 0
KFR1 151018Z 10007KT 18/11 A2997 RMK A01 T01790107  RH  063%=      5-min Rain = 0
KFR1 151019Z 10008KT 18/11 A2997 RMK A01 T01790107  RH  063%=      5-min Rain = 0
KFR1 151020Z 09009KT 18/11 A2997 RMK A01 T01800108  RH  063%=      5-min Rain = 0
KFR1 151021Z 08006KT 18/11 A2997 RMK A01 T01810108  RH  062%=      5-min Rain = 0
KFR1 151022Z 08006KT 18/11 A2997 RMK A01 T01810108  RH  062%=      5-min Rain = 0
KFR1 151023Z 08006KT 18/11 A2997 RMK A01 T01800107  RH  063%=      5-min Rain = 0
KFR1 151024Z 08006KT 18/11 A2997 RMK A01 T01790107  RH  063%=      5-min Rain = 0
KFR1 151025Z 08008KT 18/11 A2997 RMK A01 T01780107  RH  063%=      5-min Rain = 0
KFR1 151026Z 08006KT 18/11 A2997 RMK A01 T01770106  RH  063%=      5-min Rain = 0
KFR1 151027Z 08006KT 18/11 A2997 RMK A01 T01760105  RH  063%=      5-min Rain = 0
KFR1 151028Z 08006KT 18/11 A2997 RMK A01 T01750105  RH  063%=      5-min Rain = 0
KFR1 151029Z 09006KT 18/11 A2997 RMK A01 T01750105  RH  064%=      5-min Rain = 0
KFR1 151030Z 09006KT 17/10 A2997 RMK A01 T01730104  RH  064%=      5-min Rain = 0
KFR1 151031Z 09007KT 17/11 A2997 RMK A01 T01730105  RH  064%=      5-min Rain = 0
KFR1 151032Z 09007KT 17/10 A2998 RMK A01 T01720104  RH  064%=      5-min Rain = 0
KFR1 151033Z 08007KT 17/10 A2998 RMK A01 T01710104  RH  064%=      5-min Rain = 0
KFR1 151034Z 09008KT 17/10 A2998 RMK A01 T01720104  RH  064%=      5-min Rain = 0
KFR1 151035Z 09007KT 17/10 A2998 RMK A01 T01700103  RH  065%=      5-min Rain = 0
KFR1 151036Z 09006KT 17/10 A2998 RMK A01 T01700103  RH  065%=      5-min Rain = 0
KFR1 151037Z 09008KT 17/10 A2998 RMK A01 T01700103  RH  065%=      5-min Rain = 0
KFR1 151038Z 09008KT 17/10 A2998 RMK A01 T01700103  RH  065%=      5-min Rain = 0
KFR1 151039Z 09009KT 17/10 A2998 RMK A01 T01700103  RH  065%=      5-min Rain = 0
KFR1 151040Z 08009KT 17/10 A2998 RMK A01 T01700103  RH  065%=      5-min Rain = 0
KFR1 151041Z 07011KT 17/10 A2998 RMK A01 T01690103  RH  065%=      5-min Rain = 0
KFR1 151042Z 07008KT 17/10 A2998 RMK A01 T01690104  RH  065%=      5-min Rain = 0
KFR1 151043Z 07009KT 17/10 A2998 RMK A01 T01690104  RH  066%=      5-min Rain = 0
KFR1 151044Z 07009KT 17/10 A2998 RMK A01 T01690104  RH  066%=      5-min Rain = 0
KFR1 151045Z 08010KT 17/10 A2998 RMK A01 T01690104  RH  065%=      5-min Rain = 0
KFR1 151046Z 08010KT 17/10 A2998 RMK A01 T01700104  RH  065%=      5-min Rain = 0
KFR1 151047Z 08010KT 17/10 A2998 RMK A01 T01710104  RH  065%=      5-min Rain = 0
KFR1 151048Z 09008KT 17/10 A2998 RMK A01 T01710104  RH  064%=      5-min Rain = 0
KFR1 151049Z 10008KT 17/10 A2998 RMK A01 T01720104  RH  064%=      5-min Rain = 0
KFR1 151050Z 10009KT 17/10 A2998 RMK A01 T01720104  RH  064%=      5-min Rain = 0
KFR1 151051Z 11008KT 17/11 A2998 RMK A01 T01740105  RH  064%=      5-min Rain = 0
KFR1 151052Z 10007KT 17/10 A2998 RMK A01 T01730104  RH  064%=      5-min Rain = 0
KFR1 151053Z 10007KT 17/10 A2999 RMK A01 T01730104  RH  064%=      5-min Rain = 0
KFR1 151054Z 07006KT 17/10 A2999 RMK A01 T01740104  RH  064%=      5-min Rain = 0
KFR1 151055Z 06008KT 18/10 A2999 RMK A01 T01750104  RH  063%=      5-min Rain = 0
KFR1 151056Z 03008KT 18/10 A30 RMK A01 T01750104  RH  063%=      5-min Rain = 0
KFR1 151057Z 04008KT 18/11 A30 RMK A01 T01760105  RH  063%=      5-min Rain = 0
KFR1 151058Z 03006KT 18/11 A30 RMK A01 T01750106  RH  064%=      5-min Rain = 0
KFR1 151059Z 04005KT 18/11 A30 RMK A01 T01750106  RH  064%=      5-min Rain = 0
KFR1 151100Z 03008KT 18/11 A30 RMK A01 T01750108  RH  065%=      5-min Rain = 0
KFR1 151101Z 04011KT 18/11 A3001 RMK A01 T01750109  RH  065%=      5-min Rain = 0
KFR1 151102Z 06009KT 18/11 A30 RMK A01 T01750108  RH  065%=      5-min Rain = 0
KFR1 151103Z 07009KT 17/11 A30 RMK A01 T01740107  RH  065%=      5-min Rain = 0
KFR1 151104Z 08008KT 17/11 A30 RMK A01 T01740107  RH  065%=      5-min Rain = 0
KFR1 151105Z 09009KT 17/11 A30 RMK A01 T01740106  RH  065%=      5-min Rain = 0
KFR1 151106Z 09010KT 17/11 A30 RMK A01 T01740106  RH  064%=      5-min Rain = 0
KFR1 151107Z 09009KT 17/11 A30 RMK A01 T01740106  RH  064%=      5-min Rain = 0
KFR1 151108Z 09008KT 17/11 A30 RMK A01 T01740105  RH  064%=      5-min Rain = 0
KFR1 151109Z 08009KT 17/11 A30 RMK A01 T01740105  RH  064%=      5-min Rain = 0
KFR1 151110Z 08009KT 17/11 A30 RMK A01 T01740105  RH  064%=      5-min Rain = 0
KFR1 151111Z 07009KT 18/11 A30 RMK A01 T01750106  RH  064%=      5-min Rain = 0
KFR1 151112Z 07009KT 18/11 A3001 RMK A01 T01750106  RH  064%=      5-min Rain = 0
KFR1 151113Z 07011KT 18/11 A3001 RMK A01 T01750106  RH  064%=      5-min Rain = 0
KFR1 151114Z 06010KT 18/11 A3001 RMK A01 T01750106  RH  064%=      5-min Rain = 0
KFR1 151115Z 07009KT 18/11 A3001 RMK A01 T01750106  RH  064%=      5-min Rain = 0
KFR1 151116Z 06009KT 18/11 A3001 RMK A01 T01750106  RH  064%=      5-min Rain = 0
KFR1 151117Z 06008KT 18/11 A3001 RMK A01 T01750106  RH  064%=      5-min Rain = 0
KFR1 151118Z 06008KT 18/11 A3001 RMK A01 T01750107  RH  064%=      5-min Rain = 0
KFR1 151119Z 07006KT 18/11 A3001 RMK A01 T01750107  RH  064%=      5-min Rain = 0
KFR1 151120Z 07009KT 18/11 A3001 RMK A01 T01750107  RH  064%=      5-min Rain = 0
KFR1 151121Z 07008KT 18/11 A3001 RMK A01 T01750106  RH  064%=      5-min Rain = 0
KFR1 151122Z 07008KT 18/11 A3001 RMK A01 T01750106  RH  064%=      5-min Rain = 0
KFR1 151123Z 06009KT 18/11 A3001 RMK A01 T01750106  RH  064%=      5-min Rain = 0
KFR1 151124Z 05009KT 18/11 A3002 RMK A01 T01760106  RH  064%=      5-min Rain = 0
KFR1 151125Z 05008KT 18/11 A3002 RMK A01 T01760106  RH  064%=      5-min Rain = 0
KFR1 151126Z 05007KT 18/11 A3002 RMK A01 T01750106  RH  064%=      5-min Rain = 0
KFR1 151127Z 05008KT 18/11 A3002 RMK A01 T01760107  RH  064%=      5-min Rain = 0
KFR1 151128Z 05008KT 18/11 A3002 RMK A01 T01760107  RH  064%=      5-min Rain = 0
KFR1 151129Z 06008KT 18/11 A3002 RMK A01 T01760106  RH  064%=      5-min Rain = 0
KFR1 151130Z 05010KT 18/11 A3002 RMK A01 T01760106  RH  064%=      5-min Rain = 0
KFR1 151131Z 07009KT 18/11 A3002 RMK A01 T01760107  RH  064%=      5-min Rain = 0
KFR1 151132Z 06008KT 18/11 A3002 RMK A01 T01760106  RH  064%=      5-min Rain = 0
KFR1 151133Z 06010KT 18/11 A3002 RMK A01 T01750106  RH  064%=      5-min Rain = 0
KFR1 151134Z 07008KT 18/11 A3002 RMK A01 T01760107  RH  064%=      5-min Rain = 0
KFR1 151135Z 06010KT 18/11 A3002 RMK A01 T01750106  RH  064%=      5-min Rain = 0
KFR1 151136Z 06009KT 18/11 A3002 RMK A01 T01750106  RH  064%=      5-min Rain = 0
KFR1 151137Z 06007KT 18/11 A3002 RMK A01 T01750107  RH  064%=      5-min Rain = 0
KFR1 151138Z 05010KT 18/11 A3002 RMK A01 T01750107  RH  064%=      5-min Rain = 0
KFR1 151139Z 06010KT 18/11 A3002 RMK A01 T01750106  RH  064%=      5-min Rain = 0
KFR1 151140Z 06010KT 18/11 A3003 RMK A01 T01750107  RH  064%=      5-min Rain = 0
KFR1 151141Z 05009KT 17/11 A3003 RMK A01 T01740107  RH  064%=      5-min Rain = 0
KFR1 151142Z 07009KT 17/11 A3002 RMK A01 T01740107  RH  064%=      5-min Rain = 0
KFR1 151143Z 06011KT 17/11 A3003 RMK A01 T01740106  RH  064%=      5-min Rain = 0
KFR1 151144Z 06010KT 18/11 A3003 RMK A01 T01750107  RH  064%=      5-min Rain = 0
KFR1 151145Z 05010KT 17/11 A3003 RMK A01 T01740106  RH  064%=      5-min Rain = 0
KFR1 151146Z 06011KT 17/11 A3003 RMK A01 T01740107  RH  064%=      5-min Rain = 0
KFR1 151147Z 05011KT 17/11 A3003 RMK A01 T01740107  RH  064%=      5-min Rain = 0
KFR1 151148Z 05009KT 17/11 A3003 RMK A01 T01740107  RH  064%=      5-min Rain = 0
KFR1 151149Z 06011KT 17/11 A3003 RMK A01 T01740107  RH  065%=      5-min Rain = 0
KFR1 151150Z 06012KT 17/11 A3003 RMK A01 T01740107  RH  065%=      5-min Rain = 0
KFR1 151151Z 05010KT 17/11 A3003 RMK A01 T01740107  RH  065%=      5-min Rain = 0
KFR1 151152Z 06011KT 17/11 A3003 RMK A01 T01740107  RH  065%=      5-min Rain = 0
KFR1 151153Z 05012KT 17/11 A3003 RMK A01 T01740107  RH  065%=      5-min Rain = 0
KFR1 151154Z 06012KT 17/11 A3003 RMK A01 T01730107  RH  065%=      5-min Rain = 0
KFR1 151155Z 05012KT 17/11 A3003 RMK A01 T01730107  RH  065%=      5-min Rain = 0
KFR1 151156Z 05011KT 17/11 A3003 RMK A01 T01730107  RH  065%=      5-min Rain = 0
KFR1 151157Z 06012KT 17/11 A3003 RMK A01 T01730108  RH  065%=      5-min Rain = 0
KFR1 151158Z 06011KT 17/11 A3003 RMK A01 T01730108  RH  065%=      5-min Rain = 0
KFR1 151159Z 07011KT 17/11 A3003 RMK A01 T01730108  RH  065%=      5-min Rain = 0
KFR1 151200Z 07012KT 17/11 A3003 RMK A01 T01730108  RH  065%=      5-min Rain = 0
KFR1 151201Z 06014KT 17/11 A3003 RMK A01 T01730108  RH  065%=      5-min Rain = 0
KFR1 151202Z 07012KT 17/11 A3003 RMK A01 T01730108  RH  065%=      5-min Rain = 0
KFR1 151203Z 07011KT 17/11 A3003 RMK A01 T01730107  RH  065%=      5-min Rain = 0
KFR1 151204Z 07011KT 17/11 A3003 RMK A01 T01740108  RH  065%=      5-min Rain = 0
KFR1 151205Z 07014KT 17/11 A3003 RMK A01 T01740108  RH  065%=      5-min Rain = 0
KFR1 151206Z 07014KT 17/11 A3003 RMK A01 T01740108  RH  065%=      5-min Rain = 0
KFR1 151207Z 07013G18KT 17/11 A3003 RMK A01 T01740108  RH  065%=      5-min Rain = 0
KFR1 151208Z 07011KT 17/11 A3003 RMK A01 T01740108  RH  065%=      5-min Rain = 0
KFR1 151209Z 08014KT 17/11 A3003 RMK A01 T01740108  RH  065%=      5-min Rain = 0
KFR1 151210Z 07011KT 17/11 A3003 RMK A01 T01740108  RH  065%=      5-min Rain = 0
KFR1 151211Z 08012KT 17/11 A3003 RMK A01 T01740108  RH  065%=      5-min Rain = 0
KFR1 151212Z 08011KT 17/11 A3003 RMK A01 T01740109  RH  065%=      5-min Rain = 0
KFR1 151213Z 08013KT 17/11 A3003 RMK A01 T01740109  RH  065%=      5-min Rain = 0
KFR1 151214Z 07011KT 17/11 A3003 RMK A01 T01740109  RH  065%=      5-min Rain = 0
KFR1 151215Z 08013KT 17/11 A3003 RMK A01 T01740109  RH  066%=      5-min Rain = 0
KFR1 151216Z 08012KT 17/11 A3003 RMK A01 T01730109  RH  066%=      5-min Rain = 0
KFR1 151217Z 08011KT 17/11 A3003 RMK A01 T01730109  RH  066%=      5-min Rain = 0
KFR1 151218Z 08012KT 17/11 A3003 RMK A01 T01730109  RH  066%=      5-min Rain = 0
KFR1 151219Z 08010KT 17/11 A3003 RMK A01 T01730109  RH  066%=      5-min Rain = 0
KFR1 151220Z 08013KT 17/11 A3003 RMK A01 T01730109  RH  066%=      5-min Rain = 0
KFR1 151221Z 08013KT 17/11 A3003 RMK A01 T01730110  RH  066%=      5-min Rain = 0
KFR1 151222Z 08013KT 17/11 A3003 RMK A01 T01730110  RH  066%=      5-min Rain = 0
KFR1 151223Z 07012KT 17/11 A3003 RMK A01 T01730110  RH  066%=      5-min Rain = 0
KFR1 151224Z 08011KT 17/11 A3003 RMK A01 T01730110  RH  066%=      5-min Rain = 0
KFR1 151225Z 08012KT 17/11 A3003 RMK A01 T01740110  RH  066%=      5-min Rain = 0
KFR1 151226Z 08010KT 17/11 A3003 RMK A01 T01730110  RH  066%=      5-min Rain = 0
KFR1 151227Z 08010KT 17/11 A3003 RMK A01 T01730110  RH  066%=      5-min Rain = 0
KFR1 151228Z 07011KT 17/11 A3003 RMK A01 T01730111  RH  067%=      5-min Rain = 0
KFR1 151229Z 06010KT 17/11 A3004 RMK A01 T01740111  RH  067%=      5-min Rain = 0
KFR1 151230Z 06010KT 17/11 A3004 RMK A01 T01740111  RH  067%=      5-min Rain = 0
KFR1 151231Z 06011KT 17/11 A3004 RMK A01 T01740112  RH  067%=      5-min Rain = 0
KFR1 151232Z 06009KT 18/11 A3004 RMK A01 T01750112  RH  066%=      5-min Rain = 0
KFR1 151233Z 06011KT 18/11 A3004 RMK A01 T01750112  RH  067%=      5-min Rain = 0
KFR1 151234Z 07009KT 18/11 A3004 RMK A01 T01760113  RH  067%=      5-min Rain = 0
KFR1 151235Z 06009KT 18/11 A3004 RMK A01 T01750113  RH  067%=      5-min Rain = 0
KFR1 151236Z 06012KT 18/11 A3004 RMK A01 T01750114  RH  067%=      5-min Rain = 0
KFR1 151237Z 05011KT 18/12 A3004 RMK A01 T01750115  RH  068%=      5-min Rain = 0
KFR1 151238Z 05009KT 18/12 A3004 RMK A01 T01750115  RH  068%=      5-min Rain = 0
KFR1 151239Z 05007KT 18/12 A3005 RMK A01 T01750115  RH  068%=      5-min Rain = 0
KFR1 151240Z 05008KT 17/12 A3005 RMK A01 T01740115  RH  068%=      5-min Rain = 0
KFR1 151241Z 06009KT 17/12 A3005 RMK A01 T01740116  RH  069%=      5-min Rain = 0
KFR1 151242Z 06010KT 17/12 A3005 RMK A01 T01740117  RH  069%=      5-min Rain = 0
KFR1 151243Z 05008KT 17/12 A3005 RMK A01 T01740117  RH  069%=      5-min Rain = 0
KFR1 151244Z 06011KT 17/12 A3005 RMK A01 T01740117  RH  069%=      5-min Rain = 0
KFR1 151245Z 06010KT 17/12 A3005 RMK A01 T01740118  RH  070%=      5-min Rain = 0
KFR1 151246Z 06011KT 17/12 A3005 RMK A01 T01740119  RH  070%=      5-min Rain = 0
KFR1 151247Z 05008KT 17/12 A3005 RMK A01 T01740119  RH  070%=      5-min Rain = 0
KFR1 151248Z 05008KT 17/12 A3005 RMK A01 T01740119  RH  070%=      5-min Rain = 0
KFR1 151249Z 06010KT 17/12 A3005 RMK A01 T01740120  RH  070%=      5-min Rain = 0
KFR1 151250Z 06009KT 17/12 A3005 RMK A01 T01740120  RH  071%=      5-min Rain = 0
KFR1 151251Z 05009KT 17/12 A3006 RMK A01 T01740121  RH  071%=      5-min Rain = 0
KFR1 151252Z 05008KT 17/12 A3006 RMK A01 T01740121  RH  071%=      5-min Rain = 0
KFR1 151253Z 06009KT 17/12 A3006 RMK A01 T01740122  RH  071%=      5-min Rain = 0
KFR1 151254Z 05010KT 17/12 A3006 RMK A01 T01740122  RH  071%=      5-min Rain = 0
KFR1 151255Z 06010KT 17/12 A3006 RMK A01 T01740123  RH  072%=      5-min Rain = 0
KFR1 151256Z 06008KT 18/12 A3006 RMK A01 T01750123  RH  072%=      5-min Rain = 0
KFR1 151257Z 06009KT 18/12 A3006 RMK A01 T01750124  RH  072%=      5-min Rain = 0
KFR1 151258Z 06008KT 18/12 A3006 RMK A01 T01750124  RH  072%=      5-min Rain = 0
KFR1 151259Z 06008KT 18/13 A3006 RMK A01 T01750125  RH  072%=      5-min Rain = 0
KFR1 151300Z 06010KT 18/13 A3006 RMK A01 T01750125  RH  073%=      5-min Rain = 0
KFR1 151301Z 06010KT 18/13 A3006 RMK A01 T01750126  RH  073%=      5-min Rain = 0
KFR1 151302Z 06010KT 18/13 A3006 RMK A01 T01750127  RH  073%=      5-min Rain = 0
KFR1 151303Z 05009KT 18/13 A3006 RMK A01 T01750127  RH  073%=      5-min Rain = 0
KFR1 151304Z 06008KT 18/13 A3006 RMK A01 T01760127  RH  073%=      5-min Rain = 0
KFR1 151305Z 06008KT 18/13 A3006 RMK A01 T01760128  RH  073%=      5-min Rain = 0
KFR1 151306Z 06010KT 18/13 A3006 RMK A01 T01770128  RH  073%=      5-min Rain = 0
KFR1 151307Z 05010KT 18/13 A3006 RMK A01 T01770129  RH  073%=      5-min Rain = 0
KFR1 151308Z 06012KT 18/13 A3006 RMK A01 T01770130  RH  074%=      5-min Rain = 0
KFR1 151309Z 06010KT 18/13 A3006 RMK A01 T01770130  RH  074%=      5-min Rain = 0
KFR1 151310Z 06009KT 18/13 A3006 RMK A01 T01770130  RH  074%=      5-min Rain = 0
KFR1 151311Z 07009KT 18/13 A3006 RMK A01 T01780131  RH  074%=      5-min Rain = 0
KFR1 151312Z 07009KT 18/13 A3006 RMK A01 T01780132  RH  074%=      5-min Rain = 0
KFR1 151313Z 08010KT 18/13 A3006 RMK A01 T01790133  RH  074%=      5-min Rain = 0
KFR1 151314Z 08010KT 18/13 A3006 RMK A01 T01800134  RH  074%=      5-min Rain = 0
KFR1 151315Z 07010KT 18/13 A3006 RMK A01 T01810134  RH  074%=      5-min Rain = 0
KFR1 151316Z 07011KT 18/13 A3005 RMK A01 T01810134  RH  074%=      5-min Rain = 0
KFR1 151317Z 07012KT 18/14 A3005 RMK A01 T01810135  RH  074%=      5-min Rain = 0
KFR1 151318Z 07012KT 18/14 A3006 RMK A01 T01810136  RH  075%=      5-min Rain = 0
KFR1 151319Z 07011KT 18/14 A3006 RMK A01 T01810137  RH  075%=      5-min Rain = 0
KFR1 151320Z 08012G17KT 18/14 A3006 RMK A01 T01820138  RH  076%=      5-min Rain = 0
KFR1 151321Z 08017KT 18/14 A3005 RMK A01 T01820139  RH  076%=      5-min Rain = 0
KFR1 151322Z 07012KT 18/14 A3005 RMK A01 T01820140  RH  076%=      5-min Rain = 0
KFR1 151323Z 07013KT 18/14 A3005 RMK A01 T01820140  RH  077%=      5-min Rain = 0
KFR1 151324Z 07012KT 18/14 A3005 RMK A01 T01820140  RH  076%=      5-min Rain = 0
KFR1 151325Z 07012KT 18/14 A3005 RMK A01 T01820141  RH  077%=      5-min Rain = 0
KFR1 151326Z 07011KT 18/14 A3006 RMK A01 T01820142  RH  077%=      5-min Rain = 0
KFR1 151327Z 06015KT 18/14 A3005 RMK A01 T01820141  RH  077%=      5-min Rain = 0
KFR1 151328Z 06017KT 18/14 A3005 RMK A01 T01820142  RH  077%=      5-min Rain = 0
KFR1 151329Z 06014G19KT 18/14 A3005 RMK A01 T01810142  RH  078%=      5-min Rain = 0
KFR1 151330Z 08015KT 18/14 A3006 RMK A01 T01810142  RH  078%=      5-min Rain = 0
KFR1 151331Z 07013KT 18/14 A3006 RMK A01 T01810142  RH  078%=      5-min Rain = 0
KFR1 151332Z 07012KT 18/14 A3006 RMK A01 T01810142  RH  078%=      5-min Rain = 0
KFR1 151333Z 07010KT 18/14 A3006 RMK A01 T01810142  RH  078%=      5-min Rain = 0
KFR1 151334Z 08012KT 18/14 A3006 RMK A01 T01830143  RH  078%=      5-min Rain = 0
KFR1 151335Z 06015G20KT 18/14 A3006 RMK A01 T01840143  RH  077%=      5-min Rain = 0
KFR1 151336Z 07014KT 19/14 A3006 RMK A01 T01850143  RH  076%=      5-min Rain = 0
KFR1 151337Z 07014KT 19/14 A3006 RMK A01 T01860143  RH  076%=      5-min Rain = 0
KFR1 151338Z 06014G19KT 19/14 A3006 RMK A01 T01870143  RH  075%=      5-min Rain = 0
KFR1 151339Z 06012KT 19/14 A3006 RMK A01 T01880144  RH  076%=      5-min Rain = 0
KFR1 151340Z 06015KT 19/14 A3006 RMK A01 T01880143  RH  075%=      5-min Rain = 0
KFR1 151341Z 06011KT 19/14 A3006 RMK A01 T01880143  RH  075%=      5-min Rain = 0
KFR1 151342Z 06012KT 19/14 A3006 RMK A01 T01890144  RH  075%=      5-min Rain = 0
KFR1 151343Z 05013KT 19/14 A3006 RMK A01 T01910144  RH  074%=      5-min Rain = 0
KFR1 151344Z 06018KT 19/14 A3006 RMK A01 T01900144  RH  075%=      5-min Rain = 0
KFR1 151345Z 06016KT 19/14 A3006 RMK A01 T01880144  RH  075%=      5-min Rain = 0
KFR1 151346Z 06012KT 19/15 A3006 RMK A01 T01880145  RH  076%=      5-min Rain = 0
KFR1 151347Z 05016KT 19/15 A3006 RMK A01 T01880145  RH  076%=      5-min Rain = 0
KFR1 151348Z 05016KT 19/15 A3006 RMK A01 T01870146  RH  077%=      5-min Rain = 0
KFR1 151349Z 05013KT 19/15 A3006 RMK A01 T01860146  RH  077%=      5-min Rain = 0
KFR1 151350Z 06013KT 19/15 A3007 RMK A01 T01860146  RH  078%=      5-min Rain = 0
KFR1 151351Z 05015KT 19/15 A3007 RMK A01 T01860146  RH  078%=      5-min Rain = 0
KFR1 151352Z 05016KT 19/15 A3007 RMK A01 T01850146  RH  078%=      5-min Rain = 0
KFR1 151353Z 05016KT 18/15 A3007 RMK A01 T01840146  RH  078%=      5-min Rain = 0
KFR1 151354Z 05017KT 19/15 A3007 RMK A01 T01850146  RH  078%=      5-min Rain = 0
KFR1 151355Z 05014KT 18/15 A3007 RMK A01 T01840147  RH  079%=      5-min Rain = 0
KFR1 151356Z 06015KT 18/15 A3007 RMK A01 T01840147  RH  079%=      5-min Rain = 0
KFR1 151357Z 06016KT 18/15 A3007 RMK A01 T01840147  RH  079%=      5-min Rain = 0
KFR1 151358Z 06017KT 18/15 A3007 RMK A01 T01830147  RH  079%=      5-min Rain = 0
KFR1 151359Z 05017KT 18/15 A3007 RMK A01 T01830147  RH  079%=      5-min Rain = 0
KFR1 151400Z 05015G21KT 18/15 A3007 RMK A01 T01830147  RH  080%=      5-min Rain = 0
KFR1 151401Z 06013G18KT 18/15 A3007 RMK A01 T01830147  RH  080%=      5-min Rain = 0
KFR1 151402Z 05016KT 18/15 A3007 RMK A01 T01840147  RH  079%=      5-min Rain = 0
KFR1 151403Z 05016KT 18/15 A3007 RMK A01 T01840147  RH  079%=      5-min Rain = 0
KFR1 151404Z 05016KT 19/15 A3007 RMK A01 T01850147  RH  079%=      5-min Rain = 0
KFR1 151405Z 06018KT 19/15 A3007 RMK A01 T01850147  RH  078%=      5-min Rain = 0
KFR1 151406Z 06015KT 19/15 A3007 RMK A01 T01860147  RH  078%=      5-min Rain = 0
KFR1 151407Z 06016G22KT 19/15 A3007 RMK A01 T01860147  RH  078%=      5-min Rain = 0
KFR1 151408Z 07018KT 19/15 A3007 RMK A01 T01870147  RH  078%=      5-min Rain = 0
KFR1 151409Z 07015KT 19/15 A3007 RMK A01 T01870147  RH  078%=      5-min Rain = 0
KFR1 151410Z 07014KT 19/15 A3007 RMK A01 T01870148  RH  078%=      5-min Rain = 0
KFR1 151411Z 06014KT 19/15 A3007 RMK A01 T01880148  RH  078%=      5-min Rain = 0
KFR1 151412Z 06017KT 19/15 A3007 RMK A01 T01880148  RH  078%=      5-min Rain = 0
KFR1 151413Z 06014KT 19/15 A3007 RMK A01 T01890148  RH  077%=      5-min Rain = 0
KFR1 151414Z 07012KT 19/15 A3007 RMK A01 T01890149  RH  078%=      5-min Rain = 0
KFR1 151415Z 05016KT 19/15 A3007 RMK A01 T01890148  RH  077%=      5-min Rain = 0
KFR1 151416Z 05017KT 19/15 A3007 RMK A01 T01890148  RH  077%=      5-min Rain = 0
KFR1 151417Z 05016KT 19/15 A3007 RMK A01 T01890148  RH  077%=      5-min Rain = 0
KFR1 151418Z 05013KT 19/15 A3007 RMK A01 T01890148  RH  077%=      5-min Rain = 0
KFR1 151419Z 06013KT 19/15 A3007 RMK A01 T01890148  RH  077%=      5-min Rain = 0
KFR1 151420Z 05014KT 19/15 A3007 RMK A01 T01900148  RH  077%=      5-min Rain = 0
KFR1 151421Z 06015KT 19/15 A3007 RMK A01 T01900148  RH  077%=      5-min Rain = 0
KFR1 151422Z 05014KT 19/15 A3007 RMK A01 T01890149  RH  077%=      5-min Rain = 0
KFR1 151423Z 05017KT 19/15 A3007 RMK A01 T01890148  RH  077%=      5-min Rain = 0
KFR1 151424Z 06015KT 19/15 A3007 RMK A01 T01890148  RH  077%=      5-min Rain = 0
KFR1 151425Z 06014G19KT 19/15 A3007 RMK A01 T01900147  RH  076%=      5-min Rain = 0
KFR1 151426Z 06013KT 19/15 A3008 RMK A01 T01910147  RH  076%=      5-min Rain = 0
KFR1 151427Z 06013KT 19/15 A3008 RMK A01 T01910147  RH  075%=      5-min Rain = 0
KFR1 151428Z 06015KT 19/15 A3008 RMK A01 T01930148  RH  075%=      5-min Rain = 0
KFR1 151429Z 06019KT 20/15 A3007 RMK A01 T01950148  RH  074%=      5-min Rain = 0
KFR1 151430Z 07016KT 19/15 A3007 RMK A01 T01940146  RH  074%=      5-min Rain = 0
KFR1 151431Z 07012KT 19/15 A3008 RMK A01 T01940148  RH  075%=      5-min Rain = 0
KFR1 151432Z 06013KT 20/15 A3008 RMK A01 T01950148  RH  074%=      5-min Rain = 0
KFR1 151433Z 06013KT 20/15 A3008 RMK A01 T01950147  RH  074%=      5-min Rain = 0
KFR1 151434Z 06012KT 20/15 A3008 RMK A01 T01960147  RH  073%=      5-min Rain = 0
KFR1 151435Z 05016KT 20/15 A3007 RMK A01 T01970146  RH  073%=      5-min Rain = 0
KFR1 151436Z 06015KT 20/15 A3007 RMK A01 T01960147  RH  073%=      5-min Rain = 0
KFR1 151437Z 05014KT 20/15 A3007 RMK A01 T01960147  RH  073%=      5-min Rain = 0
KFR1 151438Z 06015KT 20/15 A3008 RMK A01 T01960147  RH  073%=      5-min Rain = 0
KFR1 151439Z 07016KT 20/15 A3008 RMK A01 T01980147  RH  072%=      5-min Rain = 0
KFR1 151440Z 06020KT 20/15 A3007 RMK A01 T01990146  RH  071%=      5-min Rain = 0
KFR1 151441Z 07014KT 20/15 A3008 RMK A01 T01980146  RH  072%=      5-min Rain = 0
KFR1 151442Z 08014KT 20/15 A3008 RMK A01 T02010147  RH  071%=      5-min Rain = 0
KFR1 151443Z 08015KT 20/15 A3008 RMK A01 T02020148  RH  071%=      5-min Rain = 0
KFR1 151444Z 07012KT 20/15 A3008 RMK A01 T02030148  RH  070%=      5-min Rain = 0
KFR1 151445Z 07013G19KT 20/15 A3008 RMK A01 T02040147  RH  070%=      5-min Rain = 0
KFR1 151446Z 05017G23KT 20/15 A3007 RMK A01 T02040145  RH  069%=      5-min Rain = 0
KFR1 151447Z 07018KT 20/15 A3007 RMK A01 T02020145  RH  070%=      5-min Rain = 0
KFR1 151448Z 06017KT 20/14 A3008 RMK A01 T02020144  RH  069%=      5-min Rain = 0
KFR1 151449Z 06016G21KT 20/15 A3008 RMK A01 T02020145  RH  070%=      5-min Rain = 0
KFR1 151450Z 07012KT 20/15 A3008 RMK A01 T02010145  RH  070%=      5-min Rain = 0
KFR1 151451Z 07010G15KT 20/15 A3008 RMK A01 T02010146  RH  071%=      5-min Rain = 0
KFR1 151452Z 06014KT 20/15 A3008 RMK A01 T02020146  RH  070%=      5-min Rain = 0
KFR1 151453Z 07014KT 20/15 A3008 RMK A01 T02030146  RH  069%=      5-min Rain = 0
KFR1 151454Z 07016KT 20/15 A3008 RMK A01 T02040145  RH  069%=      5-min Rain = 0
KFR1 151455Z 07016KT 20/15 A3008 RMK A01 T02040145  RH  069%=      5-min Rain = 0
KFR1 151456Z 08013KT 20/15 A3008 RMK A01 T02040145  RH  069%=      5-min Rain = 0
KFR1 151457Z 06017G22KT 21/15 A3008 RMK A01 T02060146  RH  068%=      5-min Rain = 0
KFR1 151458Z 07017KT 21/14 A3008 RMK A01 T02050144  RH  068%=      5-min Rain = 0
KFR1 151459Z 07016KT 20/14 A3008 RMK A01 T02040144  RH  068%=      5-min Rain = 0
KFR1 151500Z 07019KT 20/14 A3007 RMK A01 T02040143  RH  068%=      5-min Rain = 0
KFR1 151501Z 07017KT 20/14 A3008 RMK A01 T02030142  RH  068%=      5-min Rain = 0
KFR1 151502Z 07015KT 20/14 A3008 RMK A01 T02020143  RH  069%=      5-min Rain = 0
KFR1 151503Z 07014KT 20/15 A3008 RMK A01 T02020145  RH  070%=      5-min Rain = 0
KFR1 151504Z 07012KT 20/15 A3008 RMK A01 T02020146  RH  070%=      5-min Rain = 0
KFR1 151505Z 07013G21KT 20/15 A3008 RMK A01 T02040147  RH  070%=      5-min Rain = 0
KFR1 151506Z 08018G24KT 21/15 A3008 RMK A01 T02070145  RH  068%=      5-min Rain = 0
KFR1 151507Z 08016KT 21/14 A3008 RMK A01 T02060143  RH  067%=      5-min Rain = 0
KFR1 151508Z 08018KT 21/14 A3008 RMK A01 T02060144  RH  068%=      5-min Rain = 0
KFR1 151509Z 08015KT 21/15 A3008 RMK A01 T02060145  RH  068%=      5-min Rain = 0
KFR1 151510Z 08013KT 21/15 A3008 RMK A01 T02070145  RH  068%=      5-min Rain = 0
KFR1 151511Z 07015KT 21/15 A3008 RMK A01 T02080146  RH  068%=      5-min Rain = 0
KFR1 151512Z 06016KT 21/15 A3008 RMK A01 T02080146  RH  068%=      5-min Rain = 0
KFR1 151513Z 06018KT 21/15 A3008 RMK A01 T02080146  RH  068%=      5-min Rain = 0
KFR1 151514Z 07014KT 21/15 A3008 RMK A01 T02070146  RH  068%=      5-min Rain = 0
KFR1 151515Z 06017KT 21/15 A3008 RMK A01 T02060145  RH  068%=      5-min Rain = 0
KFR1 151516Z 07016KT 21/15 A3008 RMK A01 T02050145  RH  068%=      5-min Rain = 0
KFR1 151517Z 06012G18KT 21/15 A3008 RMK A01 T02050145  RH  069%=      5-min Rain = 0
KFR1 151518Z 06019KT 20/15 A3008 RMK A01 T02040145  RH  069%=      5-min Rain = 0
KFR1 151519Z 07015G20KT 20/15 A3008 RMK A01 T02040146  RH  069%=      5-min Rain = 0
KFR1 151520Z 07014KT 20/15 A3008 RMK A01 T02040145  RH  069%=      5-min Rain = 0
KFR1 151521Z 08017G22KT 21/15 A3008 RMK A01 T02050146  RH  069%=      5-min Rain = 0
KFR1 151522Z 07018KT 21/15 A3008 RMK A01 T02050146  RH  069%=      5-min Rain = 0
KFR1 151523Z 06016KT 20/15 A3008 RMK A01 T02040147  RH  069%=      5-min Rain = 0
KFR1 151524Z 07012KT 20/15 A3008 RMK A01 T02030147  RH  070%=      5-min Rain = 0
KFR1 151525Z 06016KT 20/15 A3008 RMK A01 T02030145  RH  069%=      5-min Rain = 0
KFR1 151526Z 08014KT 20/14 A3008 RMK A01 T02040144  RH  068%=      5-min Rain = 0
KFR1 151527Z 08016KT 21/15 A3008 RMK A01 T02050145  RH  068%=      5-min Rain = 0
KFR1 151528Z 08013KT 21/15 A3008 RMK A01 T02060145  RH  068%=      5-min Rain = 0
KFR1 151529Z 08014KT 21/15 A3008 RMK A01 T02060145  RH  068%=      5-min Rain = 0
KFR1 151530Z 08015KT 21/15 A3008 RMK A01 T02070146  RH  068%=      5-min Rain = 0
KFR1 151531Z 08016KT 21/15 A3008 RMK A01 T02080145  RH  067%=      5-min Rain = 0
KFR1 151532Z 07012KT 21/15 A3008 RMK A01 T02080146  RH  068%=      5-min Rain = 0
KFR1 151533Z 07013KT 21/15 A3008 RMK A01 T02080147  RH  068%=      5-min Rain = 0
KFR1 151534Z 06011KT 21/15 A3008 RMK A01 T02070148  RH  069%=      5-min Rain = 0
KFR1 151535Z 07012KT 21/15 A3008 RMK A01 T02070148  RH  069%=      5-min Rain = 0
KFR1 151536Z 07014KT 21/15 A3008 RMK A01 T02060147  RH  069%=      5-min Rain = 0
KFR1 151537Z 05015G21KT 21/15 A3008 RMK A01 T02050146  RH  069%=      5-min Rain = 0
KFR1 151538Z 06015G20KT 20/15 A3008 RMK A01 T02030145  RH  069%=      5-min Rain = 0
KFR1 151539Z 06016G21KT 20/15 A3008 RMK A01 T02030145  RH  069%=      5-min Rain = 0
KFR1 151540Z 06016KT 20/14 A3008 RMK A01 T02030144  RH  069%=      5-min Rain = 0
KFR1 151541Z 05014KT 20/14 A3008 RMK A01 T02030144  RH  069%=      5-min Rain = 0
KFR1 151542Z 05015KT 20/14 A3008 RMK A01 T02030143  RH  069%=      5-min Rain = 0
KFR1 151543Z 05013KT 20/14 A3008 RMK A01 T02020143  RH  069%=      5-min Rain = 0
KFR1 151544Z 06014KT 20/14 A3008 RMK A01 T02020143  RH  069%=      5-min Rain = 0
KFR1 151545Z 07015KT 20/14 A3009 RMK A01 T02020142  RH  068%=      5-min Rain = 0
KFR1 151546Z 07014KT 20/14 A3009 RMK A01 T02020142  RH  068%=      5-min Rain = 0
KFR1 151547Z 06016G21KT 20/14 A3009 RMK A01 T02030141  RH  067%=      5-min Rain = 0
KFR1 151548Z 05016KT 20/14 A3008 RMK A01 T02020140  RH  067%=      5-min Rain = 0
KFR1 151549Z 05016KT 20/14 A3009 RMK A01 T02010139  RH  067%=      5-min Rain = 0
KFR1 151550Z 05013KT 20/14 A3009 RMK A01 T02010139  RH  067%=      5-min Rain = 0
KFR1 151551Z 06015G21KT 20/14 A3009 RMK A01 T02020139  RH  067%=      5-min Rain = 0
KFR1 151552Z 07016KT 20/14 A3009 RMK A01 T02030138  RH  066%=      5-min Rain = 0
KFR1 151553Z 07014KT 20/14 A3009 RMK A01 T02030138  RH  066%=      5-min Rain = 0
KFR1 151554Z 07014KT 20/14 A3009 RMK A01 T02030138  RH  066%=      5-min Rain = 0
KFR1 151555Z 05014KT 20/14 A3009 RMK A01 T02030138  RH  066%=      5-min Rain = 0
KFR1 151556Z 06017KT 20/14 A3008 RMK A01 T02040137  RH  065%=      5-min Rain = 0
KFR1 151557Z 07016G21KT 20/14 A3008 RMK A01 T02040136  RH  065%=      5-min Rain = 0
KFR1 151558Z 07019KT 20/14 A3008 RMK A01 T02040136  RH  065%=      5-min Rain = 0
KFR1 151559Z 06016KT 20/14 A3008 RMK A01 T02040135  RH  064%=      5-min Rain = 0
KFR1 151600Z 05017KT 21/14 A3008 RMK A01 T02050135  RH  064%=      5-min Rain = 0
KFR1 151601Z 05019KT 21/14 A3008 RMK A01 T02060135  RH  064%=      5-min Rain = 0
KFR1 151602Z 06020G25KT 21/14 A3008 RMK A01 T02070135  RH  063%=      5-min Rain = 0
KFR1 151603Z 05018KT 21/14 A3008 RMK A01 T02070135  RH  063%=      5-min Rain = 0
KFR1 151604Z 05021KT 21/13 A3009 RMK A01 T02060134  RH  063%=      5-min Rain = 0
KFR1 151605Z 05016KT 21/13 A3009 RMK A01 T02060134  RH  064%=      5-min Rain = 0
KFR1 151606Z 06014KT 21/14 A3009 RMK A01 T02080136  RH  063%=      5-min Rain = 0
KFR1 151607Z 07014G19KT 21/14 A3009 RMK A01 T02090135  RH  062%=      5-min Rain = 0
KFR1 151608Z 08014KT 21/14 A3009 RMK A01 T02090135  RH  063%=      5-min Rain = 0
KFR1 151609Z 08016KT 21/14 A3009 RMK A01 T02110135  RH  062%=      5-min Rain = 0
KFR1 151610Z 07012KT 21/14 A3009 RMK A01 T02120136  RH  062%=      5-min Rain = 0
KFR1 151611Z 07013KT 21/14 A3009 RMK A01 T02130136  RH  062%=      5-min Rain = 0
KFR1 151612Z 07014KT 21/14 A3009 RMK A01 T02140136  RH  061%=      5-min Rain = 0
KFR1 151613Z 08014KT 21/14 A3009 RMK A01 T02130137  RH  062%=      5-min Rain = 0
KFR1 151614Z 07017KT 21/14 A3009 RMK A01 T02120136  RH  062%=      5-min Rain = 0
KFR1 151615Z 08017KT 21/14 A3009 RMK A01 T02090136  RH  063%=      5-min Rain = 0
KFR1 151616Z 08017KT 21/14 A3009 RMK A01 T02090136  RH  063%=      5-min Rain = 0
KFR1 151617Z 08015KT 21/14 A3009 RMK A01 T02090136  RH  063%=      5-min Rain = 0
KFR1 151618Z 08016G21KT 21/14 A3009 RMK A01 T02110137  RH  063%=      5-min Rain = 0
KFR1 151619Z 08019KT 21/14 A3009 RMK A01 T02120136  RH  062%=      5-min Rain = 0
KFR1 151620Z 07017KT 21/14 A3009 RMK A01 T02110135  RH  062%=      5-min Rain = 0
KFR1 151621Z 07017KT 21/14 A3009 RMK A01 T02100135  RH  062%=      5-min Rain = 0
KFR1 151622Z 06017KT 21/14 A3009 RMK A01 T02090135  RH  063%=      5-min Rain = 0
KFR1 151623Z 07013G18KT 21/14 A3009 RMK A01 T02090136  RH  063%=      5-min Rain = 0
KFR1 151624Z 07014KT 21/14 A3009 RMK A01 T02090136  RH  063%=      5-min Rain = 0
KFR1 151625Z 07018G24KT 21/13 A3009 RMK A01 T02100134  RH  062%=      5-min Rain = 0
KFR1 151626Z 07017KT 21/13 A3009 RMK A01 T02090132  RH  061%=      5-min Rain = 0
KFR1 151627Z 07017KT 21/13 A3009 RMK A01 T02080133  RH  062%=      5-min Rain = 0
KFR1 151628Z 06018KT 21/13 A3009 RMK A01 T02070133  RH  063%=      5-min Rain = 0
KFR1 151629Z 07017KT 21/13 A3009 RMK A01 T02070133  RH  063%=      5-min Rain = 0
KFR1 151630Z 06013G18KT 21/13 A3009 RMK A01 T02070134  RH  063%=      5-min Rain = 0
KFR1 151631Z 06013G19KT 21/13 A3009 RMK A01 T02070134  RH  063%=      5-min Rain = 0
KFR1 151632Z 08016KT 21/13 A3009 RMK A01 T02070134  RH  063%=      5-min Rain = 0
KFR1 151633Z 08016KT 21/14 A3009 RMK A01 T02080135  RH  063%=      5-min Rain = 0
KFR1 151634Z 08012KT 21/14 A301 RMK A01 T02070135  RH  063%=      5-min Rain = 0
KFR1 151635Z 08018KT 21/14 A3009 RMK A01 T02080135  RH  063%=      5-min Rain = 0
KFR1 151636Z 07016KT 21/13 A301 RMK A01 T02080134  RH  062%=      5-min Rain = 0
KFR1 151637Z 07016KT 21/14 A301 RMK A01 T02070135  RH  063%=      5-min Rain = 0
KFR1 151638Z 06014KT 21/14 A3009 RMK A01 T02070135  RH  063%=      5-min Rain = 0
KFR1 151639Z 08012KT 21/14 A301 RMK A01 T02060136  RH  064%=      5-min Rain = 0
KFR1 151640Z 07016KT 21/14 A301 RMK A01 T02080136  RH  064%=      5-min Rain = 0
KFR1 151641Z 08017KT 21/14 A3009 RMK A01 T02080135  RH  063%=      5-min Rain = 0
KFR1 151642Z 08015KT 21/14 A301 RMK A01 T02080135  RH  063%=      5-min Rain = 0
KFR1 151643Z 08014KT 21/14 A301 RMK A01 T02090135  RH  063%=      5-min Rain = 0
KFR1 151644Z 08017KT 21/13 A301 RMK A01 T02090134  RH  062%=      5-min Rain = 0
KFR1 151645Z 08015KT 21/14 A301 RMK A01 T02100135  RH  062%=      5-min Rain = 0
KFR1 151646Z 08015G20KT 21/14 A301 RMK A01 T02100135  RH  062%=      5-min Rain = 0
KFR1 151647Z 08015KT 21/13 A301 RMK A01 T02100134  RH  062%=      5-min Rain = 0
KFR1 151648Z 07013KT 21/13 A301 RMK A01 T02110134  RH  062%=      5-min Rain = 0
KFR1 151649Z 08010KT 21/14 A301 RMK A01 T02110135  RH  062%=      5-min Rain = 0
KFR1 151650Z 09012KT 21/13 A301 RMK A01 T02120134  RH  061%=      5-min Rain = 0
KFR1 151651Z 07013G18KT 21/14 A301 RMK A01 T02130135  RH  061%=      5-min Rain = 0
KFR1 151652Z 06014KT 21/13 A301 RMK A01 T02120134  RH  061%=      5-min Rain = 0
KFR1 151653Z 07012KT 21/13 A301 RMK A01 T02110133  RH  061%=      5-min Rain = 0
KFR1 151654Z 08011KT 21/13 A301 RMK A01 T02110134  RH  061%=      5-min Rain = 0
KFR1 151655Z 07011KT 21/13 A301 RMK A01 T02130134  RH  061%=      5-min Rain = 0
KFR1 151656Z 08013KT 21/13 A301 RMK A01 T02130133  RH  060%=      5-min Rain = 0
KFR1 151657Z 08011KT 21/13 A301 RMK A01 T02140133  RH  060%=      5-min Rain = 0
KFR1 151658Z 07010KT 22/13 A301 RMK A01 T02150133  RH  060%=      5-min Rain = 0
KFR1 151659Z 06011KT 22/13 A301 RMK A01 T02150133  RH  060%=      5-min Rain = 0
KFR1 151700Z 05013KT 22/13 A301 RMK A01 T02160132  RH  059%=      5-min Rain = 0
KFR1 151701Z 07010KT 22/13 A301 RMK A01 T02150132  RH  059%=      5-min Rain = 0
KFR1 151702Z 08008KT 22/13 A3011 RMK A01 T02150133  RH  060%=      5-min Rain = 0
KFR1 151703Z 07008KT 22/13 A3011 RMK A01 T02170134  RH  059%=      5-min Rain = 0
KFR1 151704Z 07010KT 22/14 A3011 RMK A01 T02190135  RH  059%=      5-min Rain = 0
KFR1 151705Z 08011KT 22/13 A3011 RMK A01 T02220133  RH  057%=      5-min Rain = 0
KFR1 151706Z 07011KT 22/13 A3011 RMK A01 T02220132  RH  057%=      5-min Rain = 0
KFR1 151707Z 07012KT 22/13 A3011 RMK A01 T02210132  RH  057%=      5-min Rain = 0
KFR1 151708Z 06011KT 22/13 A3011 RMK A01 T02200131  RH  057%=      5-min Rain = 0
KFR1 151709Z 07011KT 22/13 A3011 RMK A01 T02180131  RH  058%=      5-min Rain = 0
KFR1 151710Z 07012KT 22/13 A3011 RMK A01 T02180132  RH  058%=      5-min Rain = 0
KFR1 151711Z 08011KT 22/13 A3011 RMK A01 T02190131  RH  057%=      5-min Rain = 0
KFR1 151712Z 09012KT 22/13 A3011 RMK A01 T02190131  RH  057%=      5-min Rain = 0
KFR1 151713Z 08013KT 22/13 A301 RMK A01 T02200131  RH  057%=      5-min Rain = 0
KFR1 151714Z 08011KT 22/13 A301 RMK A01 T02200132  RH  057%=      5-min Rain = 0
KFR1 151715Z 07011KT 22/13 A301 RMK A01 T02210133  RH  057%=      5-min Rain = 0
KFR1 151716Z 08008KT 22/13 A301 RMK A01 T02230133  RH  057%=      5-min Rain = 0
KFR1 151717Z 08012KT 23/14 A301 RMK A01 T02280137  RH  056%=      5-min Rain = 0
KFR1 151718Z 08012KT 23/13 A301 RMK A01 T02320134  RH  054%=      5-min Rain = 0
KFR1 151719Z 07011KT 23/13 A301 RMK A01 T02300133  RH  054%=      5-min Rain = 0
KFR1 151720Z 06012KT 23/13 A301 RMK A01 T02280132  RH  054%=      5-min Rain = 0
KFR1 151721Z 08015KT 23/13 A301 RMK A01 T02280133  RH  055%=      5-min Rain = 0
KFR1 151722Z 06014KT 23/13 A301 RMK A01 T02300133  RH  054%=      5-min Rain = 0
KFR1 151723Z 06017KT 23/13 A301 RMK A01 T02280131  RH  054%=      5-min Rain = 0
KFR1 151724Z 07016KT 23/13 A301 RMK A01 T02260131  RH  055%=      5-min Rain = 0
KFR1 151725Z 08015KT 23/13 A301 RMK A01 T02250132  RH  056%=      5-min Rain = 0
KFR1 151726Z 08013KT 23/13 A301 RMK A01 T02260133  RH  056%=      5-min Rain = 0
KFR1 151727Z 07013KT 23/13 A301 RMK A01 T02280133  RH  055%=      5-min Rain = 0
KFR1 151728Z 06014KT 23/13 A301 RMK A01 T02290133  RH  055%=      5-min Rain = 0
KFR1 151729Z 07013KT 23/14 A301 RMK A01 T02280135  RH  055%=      5-min Rain = 0
KFR1 151730Z 08014G19KT 23/14 A301 RMK A01 T02310135  RH  055%=      5-min Rain = 0
KFR1 151731Z 08018KT 23/14 A3009 RMK A01 T02330135  RH  054%=      5-min Rain = 0
KFR1 151732Z 08014KT 23/13 A3009 RMK A01 T02330134  RH  054%=      5-min Rain = 0
KFR1 151733Z 08015KT 23/13 A3009 RMK A01 T02320133  RH  054%=      5-min Rain = 0
KFR1 151734Z 07015KT 23/14 A3009 RMK A01 T02330135  RH  054%=      5-min Rain = 0
KFR1 151735Z 08016KT 23/13 A3009 RMK A01 T02330134  RH  054%=      5-min Rain = 0
KFR1 151736Z 08013KT 23/14 A3009 RMK A01 T02320135  RH  054%=      5-min Rain = 0
KFR1 151737Z 08012KT 23/14 A3009 RMK A01 T02330135  RH  054%=      5-min Rain = 0
KFR1 151738Z 06014KT 23/14 A3008 RMK A01 T02330136  RH  054%=      5-min Rain = 0
KFR1 151739Z 06016KT 23/13 A3008 RMK A01 T02310132  RH  054%=      5-min Rain = 0
KFR1 151740Z 05014KT 23/13 A3008 RMK A01 T02290133  RH  055%=      5-min Rain = 0
KFR1 151741Z 05013KT 23/13 A3008 RMK A01 T02300133  RH  054%=      5-min Rain = 0
KFR1 151742Z 06012KT 23/13 A3008 RMK A01 T02320134  RH  054%=      5-min Rain = 0
KFR1 151743Z 07013G18KT 23/14 A3008 RMK A01 T02320135  RH  054%=      5-min Rain = 0
KFR1 151744Z 07015G20KT 23/13 A3008 RMK A01 T02330134  RH  054%=      5-min Rain = 0
KFR1 151745Z 07016KT 23/13 A3008 RMK A01 T02310131  RH  054%=      5-min Rain = 0
KFR1 151746Z 06017KT 23/13 A3009 RMK A01 T02270131  RH  055%=      5-min Rain = 0
KFR1 151747Z 06014KT 23/13 A3009 RMK A01 T02260132  RH  055%=      5-min Rain = 0
KFR1 151748Z 07013KT 23/13 A3009 RMK A01 T02280134  RH  055%=      5-min Rain = 0
KFR1 151749Z 08013KT 23/13 A3009 RMK A01 T02300134  RH  055%=      5-min Rain = 0
KFR1 151750Z 08015KT 23/13 A3009 RMK A01 T02320131  RH  053%=      5-min Rain = 0
KFR1 151751Z 07014KT 23/13 A3009 RMK A01 T02320132  RH  054%=      5-min Rain = 0
KFR1 151752Z 08013KT 23/14 A3009 RMK A01 T02320135  RH  054%=      5-min Rain = 0
KFR1 151753Z 08015KT 24/14 A3009 RMK A01 T02380136  RH  053%=      5-min Rain = 0
KFR1 151754Z 08014KT 24/14 A3008 RMK A01 T02430137  RH  052%=      5-min Rain = 0
KFR1 151755Z 07013KT 25/14 A3008 RMK A01 T02480137  RH  050%=      5-min Rain = 0
KFR1 151756Z 07010G15KT 25/13 A3008 RMK A01 T02470133  RH  049%=      5-min Rain = 0
KFR1 151757Z 09015KT 24/13 A3008 RMK A01 T02440134  RH  050%=      5-min Rain = 0
KFR1 151758Z 09013KT 24/13 A3008 RMK A01 T02420134  RH  051%=      5-min Rain = 0
KFR1 151759Z 09014KT 24/14 A3008 RMK A01 T02420137  RH  052%=      5-min Rain = 0
KFR1 151800Z 09014KT 25/14 A3008 RMK A01 T02450137  RH  051%=      5-min Rain = 0
KFR1 151801Z 09014G19KT 25/14 A3008 RMK A01 T02450137  RH  051%=      5-min Rain = 0
KFR1 151802Z 08014G19KT 24/14 A3008 RMK A01 T02440137  RH  051%=      5-min Rain = 0
KFR1 151803Z 06012KT 24/14 A3008 RMK A01 T02430136  RH  051%=      5-min Rain = 0
KFR1 151804Z 05010KT 24/14 A3008 RMK A01 T02420135  RH  051%=      5-min Rain = 0
KFR1 151805Z 07011KT 24/13 A3008 RMK A01 T02390134  RH  052%=      5-min Rain = 0
KFR1 151806Z 09012G17KT 24/14 A3008 RMK A01 T02370135  RH  053%=      5-min Rain = 0
KFR1 151807Z 09012KT 24/14 A3008 RMK A01 T02370138  RH  054%=      5-min Rain = 0
KFR1 151808Z 09015KT 24/14 A3008 RMK A01 T02360138  RH  054%=      5-min Rain = 0
KFR1 151809Z 10014KT 23/14 A3008 RMK A01 T02340139  RH  055%=      5-min Rain = 0
KFR1 151810Z 11011KT 23/14 A3008 RMK A01 T02330139  RH  056%=      5-min Rain = 0
KFR1 151811Z 10012KT 23/14 A3008 RMK A01 T02340139  RH  055%=      5-min Rain = 0
KFR1 151812Z 09010KT 24/14 A3008 RMK A01 T02360138  RH  054%=      5-min Rain = 0
KFR1 151813Z 08009KT 24/14 A3008 RMK A01 T02350139  RH  055%=      5-min Rain = 0
KFR1 151814Z 08014KT 24/14 A3008 RMK A01 T02370140  RH  055%=      5-min Rain = 0
KFR1 151815Z 08012KT 24/14 A3008 RMK A01 T02380139  RH  054%=      5-min Rain = 0
KFR1 151816Z 08012KT 24/14 A3008 RMK A01 T02380139  RH  054%=      5-min Rain = 0
KFR1 151817Z 09012KT 24/14 A3008 RMK A01 T02370139  RH  054%=      5-min Rain = 0
KFR1 151818Z 10012KT 24/14 A3008 RMK A01 T02360138  RH  054%=      5-min Rain = 0
KFR1 151819Z 10015KT 24/14 A3008 RMK A01 T02350138  RH  055%=      5-min Rain = 0
KFR1 151820Z 07015KT 24/14 A3008 RMK A01 T02370138  RH  054%=      5-min Rain = 0
KFR1 151821Z 08013KT 24/14 A3008 RMK A01 T02380137  RH  053%=      5-min Rain = 0
KFR1 151822Z 09014KT 24/14 A3008 RMK A01 T02410137  RH  052%=      5-min Rain = 0
KFR1 151823Z 10013KT 24/14 A3008 RMK A01 T02440136  RH  051%=      5-min Rain = 0
KFR1 151824Z 10013KT 25/14 A3008 RMK A01 T02460138  RH  051%=      5-min Rain = 0
KFR1 151825Z 10013KT 25/14 A3008 RMK A01 T02480138  RH  050%=      5-min Rain = 0
KFR1 151826Z 08013KT 25/14 A3007 RMK A01 T02480137  RH  050%=      5-min Rain = 0
KFR1 151827Z 07010KT 25/14 A3007 RMK A01 T02460137  RH  051%=      5-min Rain = 0
KFR1 151828Z 11013KT 24/14 A3007 RMK A01 T02440138  RH  052%=      5-min Rain = 0
KFR1 151829Z 09012KT 24/14 A3007 RMK A01 T02430139  RH  052%=      5-min Rain = 0
KFR1 151830Z 07015KT 24/14 A3007 RMK A01 T02420137  RH  052%=      5-min Rain = 0
KFR1 151831Z 09014KT 24/14 A3007 RMK A01 T02390137  RH  053%=      5-min Rain = 0
KFR1 151832Z 08011KT 24/14 A3007 RMK A01 T02390137  RH  053%=      5-min Rain = 0
KFR1 151833Z 08009KT 24/14 A3007 RMK A01 T02380137  RH  053%=      5-min Rain = 0
KFR1 151834Z 09009KT 24/14 A3007 RMK A01 T02400139  RH  053%=      5-min Rain = 0
KFR1 151835Z 08011KT 24/14 A3007 RMK A01 T02410139  RH  053%=      5-min Rain = 0
KFR1 151836Z 08013KT 24/14 A3007 RMK A01 T02410138  RH  052%=      5-min Rain = 0
KFR1 151837Z 07010KT 24/14 A3007 RMK A01 T02380137  RH  053%=      5-min Rain = 0
KFR1 151838Z 08009KT 24/14 A3007 RMK A01 T02370138  RH  054%=      5-min Rain = 0
KFR1 151839Z 06009KT 24/14 A3007 RMK A01 T02430140  RH  053%=      5-min Rain = 0
KFR1 151840Z 09012KT 25/14 A3007 RMK A01 T02450139  RH  052%=      5-min Rain = 0
KFR1 151841Z 10009KT 25/14 A3007 RMK A01 T02470139  RH  051%=      5-min Rain = 0
KFR1 151842Z 09009G15KT 25/14 A3007 RMK A01 T02510141  RH  050%=      5-min Rain = 0
KFR1 151843Z 07011KT 25/14 A3007 RMK A01 T02530140  RH  050%=      5-min Rain = 0
KFR1 151844Z 08014G19KT 25/14 A3007 RMK A01 T02510139  RH  050%=      5-min Rain = 0
KFR1 151845Z 09013KT 25/14 A3007 RMK A01 T02470137  RH  050%=      5-min Rain = 0
KFR1 151846Z 09013KT 24/14 A3007 RMK A01 T02440137  RH  051%=      5-min Rain = 0
KFR1 151847Z 10012KT 24/14 A3007 RMK A01 T02410136  RH  052%=      5-min Rain = 0
KFR1 151848Z 10011KT 24/14 A3007 RMK A01 T02390137  RH  053%=      5-min Rain = 0
KFR1 151849Z 09013KT 24/14 A3007 RMK A01 T02400136  RH  052%=      5-min Rain = 0
KFR1 151850Z 10012KT 24/14 A3007 RMK A01 T02430136  RH  051%=      5-min Rain = 0
KFR1 151851Z 09013KT 25/14 A3007 RMK A01 T02470136  RH  050%=      5-min Rain = 0
KFR1 151852Z 10012KT 25/14 A3007 RMK A01 T02480136  RH  050%=      5-min Rain = 0
KFR1 151853Z 11010KT 25/14 A3007 RMK A01 T02490137  RH  050%=      5-min Rain = 0
KFR1 151854Z 11008KT 25/14 A3007 RMK A01 T02510138  RH  049%=      5-min Rain = 0
KFR1 151855Z 09007KT 25/14 A3007 RMK A01 T02510137  RH  049%=      5-min Rain = 0
KFR1 151856Z 08010KT 25/14 A3007 RMK A01 T02510136  RH  049%=      5-min Rain = 0
KFR1 151857Z 09011KT 25/14 A3007 RMK A01 T02510136  RH  049%=      5-min Rain = 0
KFR1 151858Z 08013KT 25/13 A3007 RMK A01 T02500133  RH  048%=      5-min Rain = 0
KFR1 151859Z 09009KT 25/13 A3007 RMK A01 T02460132  RH  049%=      5-min Rain = 0
KFR1 151900Z 10010KT 24/13 A3007 RMK A01 T02440134  RH  050%=      5-min Rain = 0
KFR1 151901Z 10012KT 24/14 A3007 RMK A01 T02440135  RH  051%=      5-min Rain = 0
KFR1 151902Z 10011KT 24/14 A3007 RMK A01 T02440135  RH  051%=      5-min Rain = 0
KFR1 151903Z 11009KT 24/14 A3007 RMK A01 T02420135  RH  051%=      5-min Rain = 0
KFR1 151904Z 08011KT 24/14 A3008 RMK A01 T02410135  RH  052%=      5-min Rain = 0
KFR1 151905Z 08010G16KT 24/14 A3008 RMK A01 T02410135  RH  051%=      5-min Rain = 0
KFR1 151906Z 08014KT 24/13 A3007 RMK A01 T02420134  RH  051%=      5-min Rain = 0
KFR1 151907Z 09011KT 24/13 A3007 RMK A01 T02430134  RH  051%=      5-min Rain = 0
KFR1 151908Z 09012KT 25/14 A3007 RMK A01 T02450135  RH  050%=      5-min Rain = 0
KFR1 151909Z 08013KT 25/14 A3007 RMK A01 T02510136  RH  049%=      5-min Rain = 0
KFR1 151910Z 08010KT 26/13 A3007 RMK A01 T02550134  RH  047%=      5-min Rain = 0
KFR1 151911Z 07010KT 25/13 A3007 RMK A01 T02530134  RH  048%=      5-min Rain = 0
KFR1 151912Z 06007KT 25/13 A3007 RMK A01 T02520134  RH  048%=      5-min Rain = 0
KFR1 151913Z 10010KT 26/14 A3007 RMK A01 T02550135  RH  048%=      5-min Rain = 0
KFR1 151914Z 08009KT 26/14 A3007 RMK A01 T02560135  RH  047%=      5-min Rain = 0
KFR1 151915Z 07006KT 26/13 A3007 RMK A01 T02560134  RH  047%=      5-min Rain = 0
KFR1 151916Z 10009KT 26/14 A3007 RMK A01 T02560135  RH  047%=      5-min Rain = 0
KFR1 151917Z 09007KT 26/13 A3007 RMK A01 T02550134  RH  047%=      5-min Rain = 0
KFR1 151918Z 10010KT 26/14 A3007 RMK A01 T02550135  RH  047%=      5-min Rain = 0
KFR1 151919Z 10010KT 26/14 A3007 RMK A01 T02560135  RH  047%=      5-min Rain = 0
KFR1 151920Z 10009KT 25/13 A3007 RMK A01 T02540134  RH  047%=      5-min Rain = 0
KFR1 151921Z 09009KT 25/14 A3007 RMK A01 T02540135  RH  048%=      5-min Rain = 0
KFR1 151922Z 08008KT 26/14 A3007 RMK A01 T02580137  RH  047%=      5-min Rain = 0
KFR1 151923Z 07008KT 26/13 A3007 RMK A01 T02580134  RH  046%=      5-min Rain = 0
KFR1 151924Z 11011KT 25/13 A3007 RMK A01 T02540133  RH  047%=      5-min Rain = 0
KFR1 151925Z 10009KT 25/13 A3007 RMK A01 T02530133  RH  047%=      5-min Rain = 0
KFR1 151926Z 11012KT 25/13 A3007 RMK A01 T02540132  RH  047%=      5-min Rain = 0
KFR1 151927Z 10010KT 25/13 A3007 RMK A01 T02540132  RH  047%=      5-min Rain = 0
KFR1 151928Z 11008KT 26/13 A3007 RMK A01 T02550134  RH  047%=      5-min Rain = 0
KFR1 151929Z 11007KT 26/13 A3007 RMK A01 T02560134  RH  047%=      5-min Rain = 0
KFR1 151930Z 09008KT 26/14 A3006 RMK A01 T02590135  RH  046%=      5-min Rain = 0
KFR1 151931Z 10008KT 26/14 A3006 RMK A01 T02610136  RH  046%=      5-min Rain = 0
KFR1 151932Z 10008KT 26/13 A3006 RMK A01 T02640134  RH  045%=      5-min Rain = 0
KFR1 151933Z 11007KT 27/14 A3006 RMK A01 T02670136  RH  044%=      5-min Rain = 0
KFR1 151934Z 08012G20KT 27/14 A3006 RMK A01 T02700136  RH  044%=      5-min Rain = 0
KFR1 151935Z 09014KT 26/13 A3006 RMK A01 T02640134  RH  045%=      5-min Rain = 0
KFR1 151936Z 09011KT 26/13 A3006 RMK A01 T02580134  RH  046%=      5-min Rain = 0
KFR1 151937Z 07012KT 26/13 A3006 RMK A01 T02550133  RH  047%=      5-min Rain = 0
KFR1 151938Z 07010G15KT 25/13 A3006 RMK A01 T02530133  RH  047%=      5-min Rain = 0
KFR1 151939Z 06014KT 25/13 A3006 RMK A01 T02530132  RH  047%=      5-min Rain = 0
KFR1 151940Z 06013KT 25/13 A3006 RMK A01 T02520131  RH  047%=      5-min Rain = 0
KFR1 151941Z 06011KT 25/13 A3006 RMK A01 T02540131  RH  047%=      5-min Rain = 0
KFR1 151942Z 08014KT 26/13 A3006 RMK A01 T02560134  RH  047%=      5-min Rain = 0
KFR1 151943Z 08012KT 26/13 A3006 RMK A01 T02580132  RH  046%=      5-min Rain = 0
KFR1 151944Z 09009KT 26/13 A3006 RMK A01 T02550130  RH  046%=      5-min Rain = 0
KFR1 151945Z 10007KT 25/13 A3006 RMK A01 T02540131  RH  047%=      5-min Rain = 0
KFR1 151946Z 11008KT 26/13 A3006 RMK A01 T02570131  RH  045%=      5-min Rain = 0
KFR1 151947Z 11006KT 26/13 A3006 RMK A01 T02590133  RH  046%=      5-min Rain = 0
KFR1 151948Z 09008KT 26/13 A3006 RMK A01 T02640134  RH  045%=      5-min Rain = 0
KFR1 151949Z 08014KT 27/14 A3006 RMK A01 T02670136  RH  044%=      5-min Rain = 0
KFR1 151950Z 09016KT 27/14 A3006 RMK A01 T02680136  RH  044%=      5-min Rain = 0
KFR1 151951Z 09015KT 27/13 A3005 RMK A01 T02660134  RH  044%=      5-min Rain = 0
KFR1 151952Z 08012G17KT 26/13 A3005 RMK A01 T02620134  RH  045%=      5-min Rain = 0
KFR1 151953Z 08014KT 26/13 A3005 RMK A01 T02590133  RH  046%=      5-min Rain = 0
KFR1 151954Z 09011KT 26/13 A3005 RMK A01 T02560133  RH  046%=      5-min Rain = 0
KFR1 151955Z 10010KT 26/13 A3005 RMK A01 T02590134  RH  046%=      5-min Rain = 0
KFR1 151956Z 10012KT 26/14 A3005 RMK A01 T02630135  RH  045%=      5-min Rain = 0
KFR1 151957Z 10012KT 27/14 A3005 RMK A01 T02680135  RH  044%=      5-min Rain = 0
KFR1 151958Z 09011KT 27/13 A3005 RMK A01 T02690134  RH  043%=      5-min Rain = 0
KFR1 151959Z 09011KT 27/14 A3005 RMK A01 T02710136  RH  043%=      5-min Rain = 0
KFR1 152000Z 08010KT 27/13 A3005 RMK A01 T02720133  RH  042%=      5-min Rain = 0
KFR1 152001Z 10009KT 27/13 A3005 RMK A01 T02700132  RH  043%=      5-min Rain = 0
KFR1 152002Z 08009G14KT 27/13 A3005 RMK A01 T02670132  RH  043%=      5-min Rain = 0
KFR1 152003Z 07011KT 27/13 A3005 RMK A01 T02660130  RH  043%=      5-min Rain = 0
KFR1 152004Z 07009KT 26/13 A3005 RMK A01 T02640131  RH  044%=      5-min Rain = 0
KFR1 152005Z 08007KT 26/13 A3005 RMK A01 T02640130  RH  044%=      5-min Rain = 0
KFR1 152006Z 07007KT 26/13 A3005 RMK A01 T02640131  RH  044%=      5-min Rain = 0
KFR1 152007Z 07008KT 26/13 A3004 RMK A01 T02630130  RH  044%=      5-min Rain = 0
KFR1 152008Z 10010KT 27/13 A3005 RMK A01 T02680134  RH  044%=      5-min Rain = 0
KFR1 152009Z 10012KT 27/13 A3004 RMK A01 T02720130  RH  041%=      5-min Rain = 0
KFR1 152010Z 08012KT 27/13 A3004 RMK A01 T02680128  RH  042%=      5-min Rain = 0
KFR1 152011Z 07013KT 26/13 A3004 RMK A01 T02640127  RH  043%=      5-min Rain = 0
KFR1 152012Z 06013KT 26/13 A3004 RMK A01 T02590126  RH  044%=      5-min Rain = 0
KFR1 152013Z 07011KT 26/13 A3004 RMK A01 T02550127  RH  045%=      5-min Rain = 0
KFR1 152014Z 07008KT 25/13 A3004 RMK A01 T02540127  RH  045%=      5-min Rain = 0
KFR1 152015Z 08008KT 25/13 A3004 RMK A01 T02540129  RH  046%=      5-min Rain = 0
KFR1 152016Z 08009KT 26/13 A3004 RMK A01 T02570129  RH  045%=      5-min Rain = 0
KFR1 152017Z 09008KT 26/13 A3004 RMK A01 T02590128  RH  044%=      5-min Rain = 0
KFR1 152018Z 08008KT 26/13 A3004 RMK A01 T02630130  RH  044%=      5-min Rain = 0
KFR1 152019Z 07008KT 27/13 A3004 RMK A01 T02660131  RH  043%=      5-min Rain = 0
KFR1 152020Z 07013KT 27/13 A3004 RMK A01 T02660131  RH  043%=      5-min Rain = 0
KFR1 152021Z 08014KT 27/13 A3004 RMK A01 T02680131  RH  043%=      5-min Rain = 0
KFR1 152022Z 08011KT 27/13 A3004 RMK A01 T02690129  RH  042%=      5-min Rain = 0
KFR1 152023Z 08013KT 27/13 A3004 RMK A01 T02670128  RH  042%=      5-min Rain = 0
KFR1 152024Z 08012KT 26/13 A3004 RMK A01 T02630127  RH  043%=      5-min Rain = 0
KFR1 152025Z 07011KT 26/13 A3004 RMK A01 T02600127  RH  044%=      5-min Rain = 0
KFR1 152026Z 06011KT 26/13 A3004 RMK A01 T02590125  RH  044%=      5-min Rain = 0
KFR1 152027Z 07009KT 26/12 A3004 RMK A01 T02560124  RH  044%=      5-min Rain = 0
KFR1 152028Z 08008KT 26/13 A3004 RMK A01 T02550127  RH  045%=      5-min Rain = 0
KFR1 152029Z 08011G16KT 26/13 A3004 RMK A01 T02570128  RH  045%=      5-min Rain = 0
KFR1 152030Z 09013KT 26/13 A3004 RMK A01 T02590132  RH  045%=      5-min Rain = 0
KFR1 152031Z 08011KT 26/13 A3004 RMK A01 T02620133  RH  045%=      5-min Rain = 0
KFR1 152032Z 08009KT 27/13 A3004 RMK A01 T02650134  RH  044%=      5-min Rain = 0
KFR1 152033Z 08012KT 27/13 A3004 RMK A01 T02690134  RH  043%=      5-min Rain = 0
KFR1 152034Z 09010KT 27/13 A3004 RMK A01 T02710134  RH  043%=      5-min Rain = 0
KFR1 152035Z 09009KT 27/13 A3004 RMK A01 T02730133  RH  042%=      5-min Rain = 0
KFR1 152036Z 10008KT 27/13 A3004 RMK A01 T02730133  RH  042%=      5-min Rain = 0
KFR1 152037Z 10008KT 27/14 A3004 RMK A01 T02710136  RH  043%=      5-min Rain = 0
KFR1 152038Z 11010KT 27/14 A3004 RMK A01 T02740136  RH  043%=      5-min Rain = 0
KFR1 152039Z 09009KT 28/14 A3004 RMK A01 T02750136  RH  042%=      5-min Rain = 0
KFR1 152040Z 09011KT 28/14 A3004 RMK A01 T02760136  RH  042%=      5-min Rain = 0
KFR1 152041Z 08010KT 28/13 A3004 RMK A01 T02790133  RH  041%=      5-min Rain = 0
KFR1 152042Z 10013KT 28/13 A3003 RMK A01 T02770132  RH  041%=      5-min Rain = 0
KFR1 152043Z 11012KT 27/13 A3003 RMK A01 T02690132  RH  043%=      5-min Rain = 0
KFR1 152044Z 11012KT 27/13 A3004 RMK A01 T02670131  RH  043%=      5-min Rain = 0
KFR1 152045Z 11012KT 26/13 A3004 RMK A01 T02630129  RH  043%=      5-min Rain = 0
KFR1 152046Z 12010KT 26/13 A3004 RMK A01 T02600129  RH  044%=      5-min Rain = 0
KFR1 152047Z 13008KT 26/13 A3004 RMK A01 T02600129  RH  044%=      5-min Rain = 0
KFR1 152048Z 12009KT 26/13 A3003 RMK A01 T02590129  RH  044%=      5-min Rain = 0
KFR1 152049Z 11007KT 26/13 A3003 RMK A01 T02580129  RH  045%=      5-min Rain = 0
KFR1 152050Z 08007KT 26/13 A3003 RMK A01 T02580129  RH  045%=      5-min Rain = 0
KFR1 152051Z 08007KT 26/13 A3003 RMK A01 T02560128  RH  045%=      5-min Rain = 0
KFR1 152052Z 09007KT 26/13 A3003 RMK A01 T02550129  RH  045%=      5-min Rain = 0
KFR1 152053Z 08009KT 26/13 A3003 RMK A01 T02570130  RH  045%=      5-min Rain = 0
KFR1 152054Z 11011KT 26/13 A3003 RMK A01 T02600132  RH  045%=      5-min Rain = 0
KFR1 152055Z 10010G19KT 26/13 A3003 RMK A01 T02630133  RH  045%=      5-min Rain = 0
KFR1 152056Z 10014KT 27/13 A3002 RMK A01 T02660132  RH  043%=      5-min Rain = 0
KFR1 152057Z 11014KT 27/13 A3003 RMK A01 T02690132  RH  043%=      5-min Rain = 0
KFR1 152058Z 11013KT 27/13 A3002 RMK A01 T02690129  RH  042%=      5-min Rain = 0
KFR1 152059Z 11011KT 27/13 A3002 RMK A01 T02700131  RH  042%=      5-min Rain = 0
KFR1 152100Z 11011KT 27/13 A3002 RMK A01 T02730130  RH  041%=      5-min Rain = 0
KFR1 152101Z 10010KT 27/13 A3002 RMK A01 T02720129  RH  041%=      5-min Rain = 0
KFR1 152102Z 08010KT 27/13 A3002 RMK A01 T02720132  RH  042%=      5-min Rain = 0
KFR1 152103Z 08009KT 27/13 A3002 RMK A01 T02720129  RH  041%=      5-min Rain = 0
KFR1 152104Z 10010KT 27/13 A3002 RMK A01 T02710129  RH  042%=      5-min Rain = 0
KFR1 152105Z 09008KT 27/13 A3002 RMK A01 T02700130  RH  042%=      5-min Rain = 0
KFR1 152106Z 08011KT 27/13 A3002 RMK A01 T02710128  RH  041%=      5-min Rain = 0
KFR1 152107Z 09010KT 27/13 A3002 RMK A01 T02710126  RH  041%=      5-min Rain = 0
KFR1 152108Z 09009KT 27/13 A3002 RMK A01 T02710126  RH  041%=      5-min Rain = 0
KFR1 152109Z 09009KT 27/13 A3002 RMK A01 T02710125  RH  041%=      5-min Rain = 0
KFR1 152110Z 09008KT 27/13 A3002 RMK A01 T02700125  RH  040%=      5-min Rain = 0
KFR1 152111Z 09007KT 27/13 A3002 RMK A01 T02700126  RH  041%=      5-min Rain = 0
KFR1 152112Z 12007KT 27/13 A3002 RMK A01 T02700127  RH  041%=      5-min Rain = 0
KFR1 152113Z 14008G13KT 27/13 A3002 RMK A01 T02700132  RH  043%=      5-min Rain = 0
KFR1 152114Z 14008G13KT 27/13 A3002 RMK A01 T02720132  RH  042%=      5-min Rain = 0
KFR1 152115Z 12009KT 27/13 A3002 RMK A01 T02700132  RH  042%=      5-min Rain = 0
KFR1 152116Z 11008KT 27/13 A3002 RMK A01 T02670130  RH  043%=      5-min Rain = 0
KFR1 152117Z 11009KT 26/13 A3002 RMK A01 T02630131  RH  044%=      5-min Rain = 0
KFR1 152118Z 10010KT 26/13 A3002 RMK A01 T02610130  RH  044%=      5-min Rain = 0
KFR1 152119Z 09010KT 26/13 A3002 RMK A01 T02600129  RH  044%=      5-min Rain = 0
KFR1 152120Z 09010KT 26/13 A3002 RMK A01 T02590128  RH  044%=      5-min Rain = 0
KFR1 152121Z 11007KT 26/13 A3002 RMK A01 T02590129  RH  044%=      5-min Rain = 0
KFR1 152122Z 12009KT 26/13 A3002 RMK A01 T02590127  RH  044%=      5-min Rain = 0
KFR1 152123Z 11008KT 26/13 A3002 RMK A01 T02590128  RH  044%=      5-min Rain = 0
KFR1 152124Z 11007KT 26/13 A3002 RMK A01 T02590128  RH  044%=      5-min Rain = 0
KFR1 152125Z 13004KT 26/13 A3002 RMK A01 T02610128  RH  044%=      5-min Rain = 0
KFR1 152126Z 12005KT 26/13 A3001 RMK A01 T02640129  RH  043%=      5-min Rain = 0
KFR1 152127Z 11005KT 27/13 A3001 RMK A01 T02660127  RH  042%=      5-min Rain = 0
KFR1 152128Z 10006KT 27/13 A3001 RMK A01 T02680128  RH  042%=      5-min Rain = 0
KFR1 152129Z 09007KT 27/13 A3001 RMK A01 T02730128  RH  041%=      5-min Rain = 0
KFR1 152130Z 08007KT 28/13 A3001 RMK A01 T02780127  RH  039%=      5-min Rain = 0
KFR1 152131Z 09004KT 28/12 A3001 RMK A01 T02770124  RH  039%=      5-min Rain = 0
KFR1 152132Z 12005KT 28/13 A3001 RMK A01 T02760126  RH  040%=      5-min Rain = 0
KFR1 152133Z 12006KT 28/12 A3001 RMK A01 T02760124  RH  039%=      5-min Rain = 0
KFR1 152134Z 16003KT 27/12 A3001 RMK A01 T02740124  RH  039%=      5-min Rain = 0
KFR1 152135Z 12004KT 27/12 A3001 RMK A01 T02730124  RH  040%=      5-min Rain = 0
KFR1 152136Z 12003KT 27/12 A3001 RMK A01 T02740123  RH  039%=      5-min Rain = 0
KFR1 152137Z 16002KT 27/12 A3001 RMK A01 T02740123  RH  039%=      5-min Rain = 0
KFR1 152138Z 14004KT 27/13 A3001 RMK A01 T02740125  RH  039%=      5-min Rain = 0
KFR1 152139Z 15007KT 28/13 A3001 RMK A01 T02760133  RH  041%=      5-min Rain = 0
KFR1 152140Z 14009KT 28/13 A30 RMK A01 T02800133  RH  040%=      5-min Rain = 0
KFR1 152141Z 12012G17KT 28/13 A30 RMK A01 T02790130  RH  040%=      5-min Rain = 0
KFR1 152142Z 13010KT 28/13 A3001 RMK A01 T02760130  RH  041%=      5-min Rain = 0
KFR1 152143Z 13009KT 27/13 A3001 RMK A01 T02730129  RH  041%=      5-min Rain = 0
KFR1 152144Z 12010KT 27/13 A3001 RMK A01 T02700129  RH  042%=      5-min Rain = 0
KFR1 152145Z 13008KT 27/13 A3001 RMK A01 T02690130  RH  042%=      5-min Rain = 0
KFR1 152146Z 15009KT 27/13 A3001 RMK A01 T02690128  RH  042%=      5-min Rain = 0
KFR1 152147Z 15007KT 27/13 A3001 RMK A01 T02670128  RH  042%=      5-min Rain = 0
KFR1 152148Z 13008KT 27/13 A3001 RMK A01 T02660126  RH  042%=      5-min Rain = 0
KFR1 152149Z 14007KT 26/13 A3001 RMK A01 T02640126  RH  042%=      5-min Rain = 0
KFR1 152150Z 12007KT 26/13 A3001 RMK A01 T02630126  RH  043%=      5-min Rain = 0
KFR1 152151Z 12007KT 26/13 A3001 RMK A01 T02620126  RH  043%=      5-min Rain = 0
KFR1 152152Z 12008KT 26/13 A3001 RMK A01 T02620125  RH  043%=      5-min Rain = 0
KFR1 152153Z 12007KT 26/12 A30 RMK A01 T02620124  RH  042%=      5-min Rain = 0
KFR1 152154Z 13006KT 26/12 A30 RMK A01 T02610124  RH  043%=      5-min Rain = 0
KFR1 152155Z 11006KT 26/12 A30 RMK A01 T02610123  RH  042%=      5-min Rain = 0
KFR1 152156Z 13005KT 26/12 A30 RMK A01 T02620122  RH  042%=      5-min Rain = 0
KFR1 152157Z 16005KT 27/12 A30 RMK A01 T02650123  RH  041%=      5-min Rain = 0
KFR1 152158Z 15007KT 27/12 A30 RMK A01 T02680124  RH  041%=      5-min Rain = 0
KFR1 152159Z 13002KT 27/12 A30 RMK A01 T02720124  RH  040%=      5-min Rain = 0
KFR1 152200Z 16005KT 27/12 A30 RMK A01 T02720124  RH  040%=      5-min Rain = 0
KFR1 152201Z 17004KT 28/13 A30 RMK A01 T02760126  RH  040%=      5-min Rain = 0
KFR1 152202Z 15001KT 28/13 A30 RMK A01 T02780126  RH  039%=      5-min Rain = 0
KFR1 152203Z 08005KT 28/13 A30 RMK A01 T02790127  RH  039%=      5-min Rain = 0
KFR1 152204Z 12007G12KT 28/13 A30 RMK A01 T02820131  RH  039%=      5-min Rain = 0
KFR1 152205Z 13005KT 28/13 A30 RMK A01 T02830130  RH  039%=      5-min Rain = 0
KFR1 152206Z 11007KT 28/13 A30 RMK A01 T02820130  RH  039%=      5-min Rain = 0
KFR1 152207Z 11009KT 28/13 A30 RMK A01 T02800130  RH  040%=      5-min Rain = 0
KFR1 152208Z 10007KT 28/13 A30 RMK A01 T02800129  RH  039%=      5-min Rain = 0
KFR1 152209Z 13008KT 28/13 A30 RMK A01 T02790128  RH  039%=      5-min Rain = 0
KFR1 152210Z 10008KT 28/13 A30 RMK A01 T02770128  RH  040%=      5-min Rain = 0
KFR1 152211Z 10005KT 28/13 A30 RMK A01 T02770127  RH  039%=      5-min Rain = 0
KFR1 152212Z 11006KT 27/13 A30 RMK A01 T02740126  RH  040%=      5-min Rain = 0
KFR1 152213Z 11008KT 27/13 A30 RMK A01 T02710127  RH  041%=      5-min Rain = 0
KFR1 152214Z 14008KT 27/13 A30 RMK A01 T02710126  RH  041%=      5-min Rain = 0
KFR1 152215Z 13005KT 27/13 A30 RMK A01 T02710125  RH  041%=      5-min Rain = 0
KFR1 152216Z 14008KT 27/13 A30 RMK A01 T02710125  RH  040%=      5-min Rain = 0
KFR1 152217Z 13008KT 27/12 A2999 RMK A01 T02710123  RH  040%=      5-min Rain = 0
KFR1 152218Z 16005KT 27/13 A2999 RMK A01 T02720127  RH  041%=      5-min Rain = 0
KFR1 152219Z 14004KT 28/13 A2999 RMK A01 T02760128  RH  040%=      5-min Rain = 0
KFR1 152220Z 13005KT 28/13 A2999 RMK A01 T02780126  RH  039%=      5-min Rain = 0
KFR1 152221Z 12004KT 28/13 A2999 RMK A01 T02780127  RH  039%=      5-min Rain = 0
KFR1 152222Z 13005KT 28/13 A2999 RMK A01 T02790127  RH  039%=      5-min Rain = 0
KFR1 152223Z 14010KT 28/13 A2999 RMK A01 T02800128  RH  039%=      5-min Rain = 0
KFR1 152224Z 13012KT 28/13 A2999 RMK A01 T02790131  RH  040%=      5-min Rain = 0
KFR1 152225Z 13009KT 28/13 A2999 RMK A01 T02770131  RH  040%=      5-min Rain = 0
KFR1 152226Z 13010KT 28/13 A2999 RMK A01 T02750131  RH  041%=      5-min Rain = 0
KFR1 152227Z 12008KT 28/13 A2999 RMK A01 T02750130  RH  041%=      5-min Rain = 0
KFR1 152228Z 09010KT 28/13 A2999 RMK A01 T02750129  RH  040%=      5-min Rain = 0
KFR1 152229Z 10009KT 28/13 A2999 RMK A01 T02760128  RH  040%=      5-min Rain = 0
KFR1 152230Z 11010KT 28/13 A2998 RMK A01 T02770129  RH  040%=      5-min Rain = 0
KFR1 152231Z 12012KT 28/13 A2998 RMK A01 T02770130  RH  040%=      5-min Rain = 0
KFR1 152232Z 12011KT 28/13 A2999 RMK A01 T02760129  RH  040%=      5-min Rain = 0
KFR1 152233Z 12009KT 27/13 A2999 RMK A01 T02740128  RH  040%=      5-min Rain = 0
KFR1 152234Z 13010KT 27/13 A2999 RMK A01 T02730128  RH  041%=      5-min Rain = 0
KFR1 152235Z 12010KT 27/13 A2999 RMK A01 T02730130  RH  041%=      5-min Rain = 0
KFR1 152236Z 12012KT 28/13 A2999 RMK A01 T02760128  RH  040%=      5-min Rain = 0
KFR1 152237Z 11011KT 28/13 A2999 RMK A01 T02770128  RH  040%=      5-min Rain = 0
KFR1 152238Z 12008KT 28/13 A2999 RMK A01 T02750129  RH  041%=      5-min Rain = 0
KFR1 152239Z 13008KT 27/13 A2999 RMK A01 T02720129  RH  041%=      5-min Rain = 0
KFR1 152240Z 13008KT 27/13 A2999 RMK A01 T02700127  RH  041%=      5-min Rain = 0
KFR1 152241Z 14008KT 27/13 A2999 RMK A01 T02680127  RH  042%=      5-min Rain = 0
KFR1 152242Z 13008KT 27/13 A2999 RMK A01 T02680127  RH  042%=      5-min Rain = 0
KFR1 152243Z 13007KT 27/13 A2999 RMK A01 T02670126  RH  042%=      5-min Rain = 0
KFR1 152244Z 13005KT 27/13 A2999 RMK A01 T02660126  RH  042%=      5-min Rain = 0
KFR1 152245Z 12006KT 27/13 A2999 RMK A01 T02660126  RH  042%=      5-min Rain = 0
KFR1 152246Z 12006KT 27/13 A2999 RMK A01 T02660126  RH  042%=      5-min Rain = 0
KFR1 152247Z 12004KT 27/13 A2999 RMK A01 T02650125  RH  042%=      5-min Rain = 0
KFR1 152248Z 13005KT 27/13 A2999 RMK A01 T02650125  RH  042%=      5-min Rain = 0
KFR1 152249Z 11006KT 27/13 A2999 RMK A01 T02650126  RH  042%=      5-min Rain = 0
KFR1 152250Z 12008KT 27/13 A2999 RMK A01 T02650127  RH  042%=      5-min Rain = 0
KFR1 152251Z 13005KT 27/13 A2999 RMK A01 T02650125  RH  042%=      5-min Rain = 0
KFR1 152252Z 14005KT 27/13 A2999 RMK A01 T02650125  RH  042%=      5-min Rain = 0
KFR1 152253Z 15005KT 27/13 A2999 RMK A01 T02660126  RH  042%=      5-min Rain = 0
KFR1 152254Z 15004KT 27/13 A2999 RMK A01 T02670127  RH  042%=      5-min Rain = 0
KFR1 152255Z 15005KT 27/13 A2998 RMK A01 T02670128  RH  042%=      5-min Rain = 0
KFR1 152256Z 13009KT 27/13 A2998 RMK A01 T02680128  RH  042%=      5-min Rain = 0
KFR1 152257Z 12011KT 27/13 A2998 RMK A01 T02690126  RH  041%=      5-min Rain = 0
KFR1 152258Z 11008KT 27/13 A2998 RMK A01 T02680126  RH  041%=      5-min Rain = 0
KFR1 152259Z 11011KT 27/13 A2998 RMK A01 T02690127  RH  041%=      5-min Rain = 0
KFR1 152300Z 12010KT 27/13 A2998 RMK A01 T02700126  RH  041%=      5-min Rain = 0
KFR1 152301Z 11012KT 27/13 A2998 RMK A01 T02710127  RH  041%=      5-min Rain = 0
KFR1 152302Z 10013KT 27/13 A2998 RMK A01 T02730127  RH  040%=      5-min Rain = 0
KFR1 152303Z 11011KT 28/13 A2998 RMK A01 T02750127  RH  040%=      5-min Rain = 0
KFR1 152304Z 10010KT 28/13 A2998 RMK A01 T02760127  RH  040%=      5-min Rain = 0
KFR1 152305Z 10010KT 28/13 A2998 RMK A01 T02760127  RH  040%=      5-min Rain = 0
KFR1 152306Z 11010KT 28/13 A2998 RMK A01 T02760126  RH  039%=      5-min Rain = 0
KFR1 152307Z 12011KT 27/13 A2998 RMK A01 T02740127  RH  040%=      5-min Rain = 0
KFR1 152308Z 11009KT 27/13 A2998 RMK A01 T02720127  RH  041%=      5-min Rain = 0
KFR1 152309Z 10008KT 27/13 A2998 RMK A01 T02720128  RH  041%=      5-min Rain = 0
KFR1 152310Z 09008KT 27/13 A2998 RMK A01 T02730125  RH  040%=      5-min Rain = 0
KFR1 152311Z 09008KT 27/13 A2997 RMK A01 T02710126  RH  040%=      5-min Rain = 0
KFR1 152312Z 11008KT 27/13 A2997 RMK A01 T02710125  RH  040%=      5-min Rain = 0
KFR1 152313Z 10008KT 27/13 A2997 RMK A01 T02710125  RH  041%=      5-min Rain = 0
KFR1 152314Z 10007KT 27/12 A2997 RMK A01 T02700124  RH  040%=      5-min Rain = 0
KFR1 152315Z 10008KT 27/12 A2997 RMK A01 T02700124  RH  040%=      5-min Rain = 0
KFR1 152316Z 10009KT 27/12 A2997 RMK A01 T02690124  RH  041%=      5-min Rain = 0
KFR1 152317Z 10008KT 27/12 A2997 RMK A01 T02680122  RH  040%=      5-min Rain = 0
KFR1 152318Z 11008KT 27/12 A2997 RMK A01 T02680122  RH  040%=      5-min Rain = 0
KFR1 152319Z 11005KT 27/12 A2997 RMK A01 T02680122  RH  040%=      5-min Rain = 0
KFR1 152320Z 11005KT 27/12 A2997 RMK A01 T02670123  RH  041%=      5-min Rain = 0
KFR1 152321Z 10005KT 27/13 A2997 RMK A01 T02680125  RH  041%=      5-min Rain = 0
KFR1 152322Z 10005KT 27/13 A2997 RMK A01 T02690125  RH  041%=      5-min Rain = 0
KFR1 152323Z 10006KT 27/13 A2997 RMK A01 T02700125  RH  041%=      5-min Rain = 0
KFR1 152324Z 11010KT 27/13 A2997 RMK A01 T02700125  RH  041%=      5-min Rain = 0
KFR1 152325Z 11011KT 27/12 A2997 RMK A01 T02690124  RH  041%=      5-min Rain = 0
KFR1 152326Z 11010KT 27/13 A2997 RMK A01 T02680125  RH  041%=      5-min Rain = 0
KFR1 152327Z 10008KT 27/12 A2997 RMK A01 T02670124  RH  041%=      5-min Rain = 0
KFR1 152328Z 10007KT 27/13 A2997 RMK A01 T02660125  RH  041%=      5-min Rain = 0
KFR1 152329Z 10007KT 27/13 A2997 RMK A01 T02670125  RH  042%=      5-min Rain = 0
KFR1 152330Z 10007KT 27/13 A2997 RMK A01 T02670125  RH  042%=      5-min Rain = 0
KFR1 152331Z 09010KT 27/13 A2997 RMK A01 T02670126  RH  041%=      5-min Rain = 0
KFR1 152332Z 09008KT 27/13 A2997 RMK A01 T02670125  RH  041%=      5-min Rain = 0
KFR1 152333Z 09008KT 27/13 A2996 RMK A01 T02660126  RH  042%=      5-min Rain = 0
KFR1 152334Z 10008KT 27/13 A2996 RMK A01 T02660125  RH  042%=      5-min Rain = 0
KFR1 152335Z 09009KT 27/13 A2996 RMK A01 T02660125  RH  041%=      5-min Rain = 0
KFR1 152336Z 09008KT 27/13 A2996 RMK A01 T02660125  RH  041%=      5-min Rain = 0
KFR1 152337Z 10009KT 27/13 A2996 RMK A01 T02660125  RH  041%=      5-min Rain = 0
KFR1 152338Z 09008KT 27/12 A2996 RMK A01 T02670123  RH  041%=      5-min Rain = 0
KFR1 152339Z 09009KT 27/12 A2996 RMK A01 T02670123  RH  041%=      5-min Rain = 0
KFR1 152340Z 09008KT 27/12 A2996 RMK A01 T02660123  RH  041%=      5-min Rain = 0
KFR1 152341Z 09007KT 27/12 A2996 RMK A01 T02660124  RH  041%=      5-min Rain = 0
KFR1 152342Z 09007KT 27/12 A2996 RMK A01 T02650123  RH  041%=      5-min Rain = 0
KFR1 152343Z 11007KT 27/12 A2996 RMK A01 T02660124  RH  041%=      5-min Rain = 0
KFR1 152344Z 11007KT 27/12 A2996 RMK A01 T02660124  RH  041%=      5-min Rain = 0
KFR1 152345Z 11008KT 27/13 A2996 RMK A01 T02670125  RH  041%=      5-min Rain = 0
KFR1 152346Z 12008KT 27/12 A2995 RMK A01 T02670124  RH  041%=      5-min Rain = 0
KFR1 152347Z 12008KT 27/13 A2995 RMK A01 T02670125  RH  041%=      5-min Rain = 0
KFR1 152348Z 12009KT 27/13 A2995 RMK A01 T02670126  RH  042%=      5-min Rain = 0
KFR1 152349Z 11008KT 27/13 A2995 RMK A01 T02670127  RH  042%=      5-min Rain = 0
KFR1 152350Z 12008KT 27/13 A2995 RMK A01 T02660126  RH  042%=      5-min Rain = 0
KFR1 152351Z 11007KT 27/13 A2995 RMK A01 T02660127  RH  042%=      5-min Rain = 0
KFR1 152352Z 13006KT 27/13 A2995 RMK A01 T02660127  RH  042%=      5-min Rain = 0
KFR1 152353Z 10007KT 27/13 A2995 RMK A01 T02660127  RH  042%=      5-min Rain = 0
KFR1 152354Z 10007KT 27/13 A2995 RMK A01 T02660127  RH  042%=      5-min Rain = 0
KFR1 152355Z 09007KT 27/13 A2995 RMK A01 T02660126  RH  042%=      5-min Rain = 0
KFR1 152356Z 10006KT 27/13 A2995 RMK A01 T02660126  RH  042%=      5-min Rain = 0
KFR1 152357Z 10005KT 27/13 A2995 RMK A01 T02660127  RH  042%=      5-min Rain = 0
KFR1 152358Z 09005KT 27/13 A2995 RMK A01 T02670127  RH  042%=      5-min Rain = 0
KFR1 152359Z 09006KT 27/13 A2995 RMK A01 T02670127  RH  042%=      5-min Rain = 0
KFR1 160000Z 09006KT 27/13 A2995 RMK A01 T02670126  RH  042%=      5-min Rain = 0
KFR1 160001Z 10007KT 27/13 A2995 RMK A01 T02660126  RH  042%=      5-min Rain = 0
KFR1 160002Z 11006KT 27/13 A2995 RMK A01 T02660126  RH  042%=      5-min Rain = 0
KFR1 160003Z 10006KT 27/13 A2996 RMK A01 T02650125  RH  042%=      5-min Rain = 0
KFR1 160004Z 09005KT 27/13 A2996 RMK A01 T02660125  RH  042%=      5-min Rain = 0
KFR1 160005Z 09006KT 27/12 A2996 RMK A01 T02660124  RH  041%=      5-min Rain = 0
KFR1 160006Z 09005KT 27/12 A2996 RMK A01 T02650124  RH  042%=      5-min Rain = 0
KFR1 160007Z 08005KT 27/12 A2996 RMK A01 T02650124  RH  042%=      5-min Rain = 0
KFR1 160008Z 10004KT 26/13 A2996 RMK A01 T02640125  RH  042%=      5-min Rain = 0
KFR1 160009Z 09004KT 26/12 A2996 RMK A01 T02640124  RH  042%=      5-min Rain = 0
KFR1 160010Z 09005KT 26/13 A2995 RMK A01 T02640125  RH  042%=      5-min Rain = 0
KFR1 160011Z 10008KT 26/13 A2995 RMK A01 T02640125  RH  042%=      5-min Rain = 0
KFR1 160012Z 09006KT 26/13 A2995 RMK A01 T02640126  RH  042%=      5-min Rain = 0
KFR1 160013Z 09006KT 26/13 A2995 RMK A01 T02630126  RH  043%=      5-min Rain = 0
KFR1 160014Z 10004KT 26/13 A2995 RMK A01 T02620126  RH  043%=      5-min Rain = 0
KFR1 160015Z 11006KT 26/13 A2995 RMK A01 T02620127  RH  043%=      5-min Rain = 0
KFR1 160016Z 11007KT 26/13 A2995 RMK A01 T02620127  RH  043%=      5-min Rain = 0
KFR1 160017Z 11007KT 26/13 A2995 RMK A01 T02620126  RH  043%=      5-min Rain = 0
KFR1 160018Z 11006KT 26/13 A2996 RMK A01 T02620126  RH  043%=      5-min Rain = 0
KFR1 160019Z 12007KT 26/13 A2996 RMK A01 T02620127  RH  043%=      5-min Rain = 0
KFR1 160020Z 12004KT 26/13 A2996 RMK A01 T02620127  RH  043%=      5-min Rain = 0
KFR1 160021Z 13007KT 26/13 A2996 RMK A01 T02620127  RH  043%=      5-min Rain = 0
KFR1 160022Z 13006KT 26/13 A2996 RMK A01 T02610127  RH  043%=      5-min Rain = 0
KFR1 160023Z 14005KT 26/13 A2996 RMK A01 T02610127  RH  043%=      5-min Rain = 0
KFR1 160024Z 14006KT 26/13 A2997 RMK A01 T02610127  RH  043%=      5-min Rain = 0
KFR1 160025Z 14005KT 26/13 A2997 RMK A01 T02610127  RH  044%=      5-min Rain = 0
KFR1 160026Z 14007KT 26/13 A2997 RMK A01 T02610127  RH  044%=      5-min Rain = 0
KFR1 160027Z 14006KT 26/13 A2997 RMK A01 T02610128  RH  044%=      5-min Rain = 0
KFR1 160028Z 14005KT 26/13 A2997 RMK A01 T02610128  RH  044%=      5-min Rain = 0
KFR1 160029Z 14004KT 26/13 A2998 RMK A01 T02610128  RH  044%=      5-min Rain = 0
KFR1 160030Z 13004KT 26/13 A2998 RMK A01 T02600128  RH  044%=      5-min Rain = 0
KFR1 160031Z 15004KT 26/13 A2998 RMK A01 T02600128  RH  044%=      5-min Rain = 0
KFR1 160032Z 16003KT 26/13 A2998 RMK A01 T02600129  RH  044%=      5-min Rain = 0
KFR1 160033Z 15003KT 26/13 A2998 RMK A01 T02600129  RH  044%=      5-min Rain = 0
KFR1 160034Z 14005KT 26/13 A2998 RMK A01 T02600129  RH  044%=      5-min Rain = 0
KFR1 160035Z 13004KT 26/13 A2998 RMK A01 T02590128  RH  044%=      5-min Rain = 0
KFR1 160036Z 15003KT 26/13 A2998 RMK A01 T02590129  RH  044%=      5-min Rain = 0
KFR1 160037Z 16003KT 26/13 A2998 RMK A01 T02590129  RH  045%=      5-min Rain = 0
KFR1 160038Z 16004KT 26/13 A2998 RMK A01 T02590129  RH  045%=      5-min Rain = 0
KFR1 160039Z 17005KT 26/13 A2998 RMK A01 T02580129  RH  045%=      5-min Rain = 0
KFR1 160040Z 16005KT 26/13 A2999 RMK A01 T02580129  RH  045%=      5-min Rain = 0
KFR1 160041Z 17004KT 26/13 A2999 RMK A01 T02580130  RH  045%=      5-min Rain = 0
KFR1 160042Z 15004KT 26/13 A2998 RMK A01 T02570130  RH  045%=      5-min Rain = 0
KFR1 160043Z 15004KT 26/13 A2998 RMK A01 T02570130  RH  045%=      5-min Rain = 0
KFR1 160044Z 15005KT 26/13 A2998 RMK A01 T02570130  RH  045%=      5-min Rain = 0
KFR1 160045Z 15006KT 26/13 A2998 RMK A01 T02570130  RH  045%=      5-min Rain = 0
KFR1 160046Z 15005KT 26/13 A2998 RMK A01 T02560130  RH  045%=      5-min Rain = 0
KFR1 160047Z 14005KT 26/13 A2998 RMK A01 T02560130  RH  046%=      5-min Rain = 0
KFR1 160048Z 14006KT 26/13 A2997 RMK A01 T02560130  RH  045%=      5-min Rain = 0
KFR1 160049Z 13006KT 26/13 A2997 RMK A01 T02560129  RH  045%=      5-min Rain = 0
KFR1 160050Z 13006KT 26/13 A2997 RMK A01 T02560129  RH  045%=      5-min Rain = 0
KFR1 160051Z 14006KT 26/13 A2997 RMK A01 T02560129  RH  045%=      5-min Rain = 0
KFR1 160052Z 14005KT 26/13 A2997 RMK A01 T02560129  RH  045%=      5-min Rain = 0
KFR1 160053Z 13005KT 26/13 A2997 RMK A01 T02560129  RH  045%=      5-min Rain = 0
KFR1 160054Z 14005KT 26/13 A2997 RMK A01 T02560129  RH  045%=      5-min Rain = 0
KFR1 160055Z 13006KT 26/13 A2998 RMK A01 T02550129  RH  045%=      5-min Rain = 0
KFR1 160056Z 13006KT 26/13 A2998 RMK A01 T02550129  RH  046%=      5-min Rain = 0
KFR1 160057Z 13006KT 26/13 A2998 RMK A01 T02550129  RH  046%=      5-min Rain = 0
KFR1 160058Z 13005KT 26/13 A2998 RMK A01 T02550129  RH  046%=      5-min Rain = 0
KFR1 160059Z 13006KT 26/13 A2998 RMK A01 T02550130  RH  046%=      5-min Rain = 0
KFR1 160100Z 13007KT 26/13 A2998 RMK A01 T02550130  RH  046%=      5-min Rain = 0
KFR1 160101Z 12006KT 26/13 A2998 RMK A01 T02550130  RH  046%=      5-min Rain = 0
KFR1 160102Z 12005KT 26/13 A2998 RMK A01 T02550130  RH  046%=      5-min Rain = 0
KFR1 160103Z 12005KT 25/13 A2998 RMK A01 T02540130  RH  046%=      5-min Rain = 0
KFR1 160104Z 12007KT 25/13 A2998 RMK A01 T02540131  RH  046%=      5-min Rain = 0
KFR1 160105Z 13006KT 25/13 A2998 RMK A01 T02540132  RH  047%=      5-min Rain = 0
KFR1 160106Z 13006KT 25/13 A2998 RMK A01 T02540132  RH  047%=      5-min Rain = 0
KFR1 160107Z 13004KT 25/13 A2998 RMK A01 T02530132  RH  047%=      5-min Rain = 0
KFR1 160108Z 13005KT 25/13 A2998 RMK A01 T02540132  RH  047%=      5-min Rain = 0
KFR1 160109Z 13005KT 25/13 A2998 RMK A01 T02530132  RH  047%=      5-min Rain = 0
KFR1 160110Z 13005KT 25/13 A2998 RMK A01 T02530132  RH  047%=      5-min Rain = 0
KFR1 160111Z 13006KT 25/13 A2998 RMK A01 T02530132  RH  047%=      5-min Rain = 0
KFR1 160112Z 13006KT 25/13 A2998 RMK A01 T02530132  RH  047%=      5-min Rain = 0
KFR1 160113Z 13006KT 25/13 A2998 RMK A01 T02530132  RH  047%=      5-min Rain = 0
KFR1 160114Z 13006KT 25/13 A2998 RMK A01 T02530132  RH  047%=      5-min Rain = 0
KFR1 160115Z 13006KT 25/13 A2998 RMK A01 T02520132  RH  047%=      5-min Rain = 0
KFR1 160116Z 13007KT 25/13 A2998 RMK A01 T02530132  RH  047%=      5-min Rain = 0
KFR1 160117Z 13008KT 25/13 A2998 RMK A01 T02530132  RH  047%=      5-min Rain = 0
KFR1 160118Z 13006KT 25/13 A2998 RMK A01 T02530132  RH  047%=      5-min Rain = 0
KFR1 160119Z 14006KT 25/13 A2998 RMK A01 T02520131  RH  047%=      5-min Rain = 0
KFR1 160120Z 14006KT 25/13 A2998 RMK A01 T02530132  RH  047%=      5-min Rain = 0
KFR1 160121Z 14007KT 25/13 A2998 RMK A01 T02530132  RH  047%=      5-min Rain = 0
KFR1 160122Z 14007KT 25/13 A2998 RMK A01 T02530132  RH  047%=      5-min Rain = 0
KFR1 160123Z 14006KT 25/13 A2998 RMK A01 T02530132  RH  047%=      5-min Rain = 0
KFR1 160124Z 14005KT 25/13 A2998 RMK A01 T02530132  RH  047%=      5-min Rain = 0
KFR1 160125Z 14006KT 25/13 A2998 RMK A01 T02530133  RH  047%=      5-min Rain = 0
KFR1 160126Z 14006KT 25/13 A2999 RMK A01 T02520132  RH  047%=      5-min Rain = 0
KFR1 160127Z 14007KT 25/13 A2999 RMK A01 T02520133  RH  048%=      5-min Rain = 0
KFR1 160128Z 14006KT 25/13 A2999 RMK A01 T02510133  RH  048%=      5-min Rain = 0
KFR1 160129Z 15006KT 25/13 A2999 RMK A01 T02510132  RH  048%=      5-min Rain = 0
KFR1 160130Z 14007KT 25/13 A2999 RMK A01 T02500133  RH  048%=      5-min Rain = 0
KFR1 160131Z 14006KT 25/13 A2999 RMK A01 T02500133  RH  048%=      5-min Rain = 0
KFR1 160132Z 14006KT 25/13 A2999 RMK A01 T02490133  RH  048%=      5-min Rain = 0
KFR1 160133Z 13006KT 25/13 A2999 RMK A01 T02490133  RH  048%=      5-min Rain = 0
KFR1 160134Z 14006KT 25/13 A2999 RMK A01 T02490133  RH  049%=      5-min Rain = 0
KFR1 160135Z 13007KT 25/13 A2999 RMK A01 T02480133  RH  049%=      5-min Rain = 0
KFR1 160136Z 13007KT 25/13 A2999 RMK A01 T02480133  RH  049%=      5-min Rain = 0
KFR1 160137Z 13008KT 25/13 A2999 RMK A01 T02480133  RH  049%=      5-min Rain = 0
KFR1 160138Z 13007KT 25/13 A2999 RMK A01 T02480133  RH  049%=      5-min Rain = 0
KFR1 160139Z 13007KT 25/13 A2999 RMK A01 T02470133  RH  049%=      5-min Rain = 0
KFR1 160140Z 14008KT 25/13 A2999 RMK A01 T02480134  RH  049%=      5-min Rain = 0
KFR1 160141Z 14008KT 25/13 A2999 RMK A01 T02470134  RH  049%=      5-min Rain = 0
KFR1 160142Z 13008KT 25/13 A2999 RMK A01 T02470134  RH  049%=      5-min Rain = 0
KFR1 160143Z 14007KT 25/14 A2999 RMK A01 T02470135  RH  049%=      5-min Rain = 0
KFR1 160144Z 14007KT 25/13 A2999 RMK A01 T02470134  RH  050%=      5-min Rain = 0
KFR1 160145Z 14007KT 25/13 A2999 RMK A01 T02470134  RH  050%=      5-min Rain = 0
KFR1 160146Z 13008KT 25/14 A2999 RMK A01 T02470135  RH  050%=      5-min Rain = 0
KFR1 160147Z 13007KT 25/14 A2999 RMK A01 T02460135  RH  050%=      5-min Rain = 0
KFR1 160148Z 13009KT 25/14 A2999 RMK A01 T02460135  RH  050%=      5-min Rain = 0
KFR1 160149Z 13008KT 25/14 A2998 RMK A01 T02460135  RH  050%=      5-min Rain = 0
KFR1 160150Z 13009KT 25/14 A2998 RMK A01 T02460135  RH  050%=      5-min Rain = 0
KFR1 160151Z 13009KT 25/14 A2998 RMK A01 T02460135  RH  050%=      5-min Rain = 0
KFR1 160152Z 13009KT 25/14 A2998 RMK A01 T02460135  RH  050%=      5-min Rain = 0
KFR1 160153Z 13009KT 25/14 A2998 RMK A01 T02450135  RH  050%=      5-min Rain = 0
KFR1 160154Z 12008KT 25/14 A2998 RMK A01 T02450135  RH  050%=      5-min Rain = 0
KFR1 160155Z 13008KT 25/14 A2998 RMK A01 T02450135  RH  050%=      5-min Rain = 0
KFR1 160156Z 12008KT 25/14 A2997 RMK A01 T02450135  RH  050%=      5-min Rain = 0
KFR1 160157Z 13008KT 25/14 A2997 RMK A01 T02450135  RH  050%=      5-min Rain = 0
KFR1 160158Z 12009KT 24/14 A2997 RMK A01 T02440135  RH  050%=      5-min Rain = 0
KFR1 160159Z 12009KT 24/14 A2997 RMK A01 T02440135  RH  050%=      5-min Rain = 0
KFR1 160200Z 13008KT 24/14 A2997 RMK A01 T02440135  RH  050%=      5-min Rain = 0
KFR1 160201Z 12009KT 24/14 A2997 RMK A01 T02440135  RH  050%=      5-min Rain = 0
KFR1 160202Z 12011KT 25/14 A2997 RMK A01 T02450135  RH  050%=      5-min Rain = 0
KFR1 160203Z 12010KT 24/13 A2997 RMK A01 T02440134  RH  050%=      5-min Rain = 0
KFR1 160204Z 12008KT 24/14 A2997 RMK A01 T02440135  RH  050%=      5-min Rain = 0
KFR1 160205Z 12009KT 24/14 A2996 RMK A01 T02440135  RH  050%=      5-min Rain = 0
KFR1 160206Z 12009KT 24/14 A2996 RMK A01 T02440135  RH  051%=      5-min Rain = 0
KFR1 160207Z 11010KT 24/14 A2996 RMK A01 T02440135  RH  051%=      5-min Rain = 0
KFR1 160208Z 12009KT 24/14 A2996 RMK A01 T02430135  RH  051%=      5-min Rain = 0
KFR1 160209Z 12010KT 24/14 A2996 RMK A01 T02430135  RH  051%=      5-min Rain = 0
KFR1 160210Z 12009KT 24/14 A2996 RMK A01 T02430135  RH  051%=      5-min Rain = 0
KFR1 160211Z 11010KT 24/14 A2995 RMK A01 T02420135  RH  051%=      5-min Rain = 0
KFR1 160212Z 12009KT 24/14 A2995 RMK A01 T02420135  RH  051%=      5-min Rain = 0
KFR1 160213Z 12011KT 24/14 A2995 RMK A01 T02420135  RH  051%=      5-min Rain = 0
KFR1 160214Z 12010KT 24/14 A2995 RMK A01 T02430135  RH  051%=      5-min Rain = 0
KFR1 160215Z 12011KT 24/14 A2995 RMK A01 T02420135  RH  051%=      5-min Rain = 0
KFR1 160216Z 13009KT 24/14 A2995 RMK A01 T02430135  RH  051%=      5-min Rain = 0
KFR1 160217Z 12010KT 24/14 A2994 RMK A01 T02430135  RH  051%=      5-min Rain = 0
KFR1 160218Z 12012KT 24/14 A2994 RMK A01 T02420135  RH  051%=      5-min Rain = 0
KFR1 160219Z 12010KT 24/14 A2994 RMK A01 T02430135  RH  051%=      5-min Rain = 0
KFR1 160220Z 12010KT 24/14 A2994 RMK A01 T02420135  RH  051%=      5-min Rain = 0
KFR1 160221Z 12009KT 24/14 A2994 RMK A01 T02430135  RH  051%=      5-min Rain = 0
KFR1 160222Z 12009KT 24/14 A2994 RMK A01 T02420135  RH  051%=      5-min Rain = 0
KFR1 160223Z 12010KT 24/14 A2994 RMK A01 T02420135  RH  051%=      5-min Rain = 0
KFR1 160224Z 13009G15KT 24/14 A2994 RMK A01 T02420135  RH  051%=      5-min Rain = 0
KFR1 160225Z 13011KT 24/14 A2994 RMK A01 T02420135  RH  051%=      5-min Rain = 0
KFR1 160226Z 13010KT 24/14 A2994 RMK A01 T02410135  RH  051%=      5-min Rain = 0
KFR1 160227Z 13009KT 24/14 A2994 RMK A01 T02420135  RH  051%=      5-min Rain = 0
KFR1 160228Z 13011KT 24/14 A2994 RMK A01 T02420135  RH  051%=      5-min Rain = 0
KFR1 160229Z 13008KT 24/14 A2994 RMK A01 T02420135  RH  051%=      5-min Rain = 0
KFR1 160230Z 13009KT 24/14 A2994 RMK A01 T02420135  RH  051%=      5-min Rain = 0
KFR1 160231Z 13010KT 24/14 A2994 RMK A01 T02410135  RH  052%=      5-min Rain = 0
KFR1 160232Z 13009KT 24/14 A2994 RMK A01 T02410136  RH  052%=      5-min Rain = 0
KFR1 160233Z 14012KT 24/14 A2994 RMK A01 T02410136  RH  052%=      5-min Rain = 0
KFR1 160234Z 13009KT 24/14 A2994 RMK A01 T02410135  RH  052%=      5-min Rain = 0
KFR1 160235Z 14008KT 24/14 A2994 RMK A01 T02400135  RH  052%=      5-min Rain = 0
KFR1 160236Z 14007KT 24/14 A2994 RMK A01 T02400135  RH  052%=      5-min Rain = 0
KFR1 160237Z 14009KT 24/14 A2994 RMK A01 T02390136  RH  052%=      5-min Rain = 0
KFR1 160238Z 13007KT 24/14 A2994 RMK A01 T02390136  RH  052%=      5-min Rain = 0
KFR1 160239Z 14009KT 24/14 A2994 RMK A01 T02390136  RH  052%=      5-min Rain = 0
KFR1 160240Z 14008G13KT 24/14 A2994 RMK A01 T02390136  RH  053%=      5-min Rain = 0
KFR1 160241Z 14008KT 24/14 A2994 RMK A01 T02380136  RH  053%=      5-min Rain = 0
KFR1 160242Z 13007KT 24/14 A2994 RMK A01 T02380136  RH  053%=      5-min Rain = 0
KFR1 160243Z 12008KT 24/14 A2994 RMK A01 T02370136  RH  053%=      5-min Rain = 0
KFR1 160244Z 11006KT 24/14 A2995 RMK A01 T02370136  RH  053%=      5-min Rain = 0
KFR1 160245Z 11007KT 24/14 A2995 RMK A01 T02360136  RH  053%=      5-min Rain = 0
KFR1 160246Z 11008KT 24/14 A2995 RMK A01 T02350136  RH  054%=      5-min Rain = 0
KFR1 160247Z 10006KT 23/14 A2995 RMK A01 T02340136  RH  054%=      5-min Rain = 0
KFR1 160248Z 10007KT 23/14 A2995 RMK A01 T02330136  RH  054%=      5-min Rain = 0
KFR1 160249Z 10006KT 23/14 A2995 RMK A01 T02320136  RH  055%=      5-min Rain = 0
KFR1 160250Z 09007KT 23/14 A2995 RMK A01 T02320136  RH  055%=      5-min Rain = 0
KFR1 160251Z 10006KT 23/14 A2996 RMK A01 T02310136  RH  055%=      5-min Rain = 0
KFR1 160252Z 09005KT 23/14 A2996 RMK A01 T02310136  RH  055%=      5-min Rain = 0
KFR1 160253Z 09007KT 23/14 A2996 RMK A01 T02300136  RH  055%=      5-min Rain = 0
KFR1 160254Z 08006KT 23/14 A2996 RMK A01 T02290136  RH  056%=      5-min Rain = 0
KFR1 160255Z 08007KT 23/14 A2996 RMK A01 T02290136  RH  056%=      5-min Rain = 0
KFR1 160256Z 08006KT 23/14 A2996 RMK A01 T02290136  RH  056%=      5-min Rain = 0
KFR1 160257Z 08007KT 23/14 A2996 RMK A01 T02290136  RH  056%=      5-min Rain = 0
KFR1 160258Z 07007KT 23/14 A2996 RMK A01 T02290136  RH  056%=      5-min Rain = 0
KFR1 160259Z 07007KT 23/14 A2997 RMK A01 T02290136  RH  056%=      5-min Rain = 0
KFR1 160300Z 07008KT 23/14 A2997 RMK A01 T02290136  RH  056%=      5-min Rain = 0
KFR1 160301Z 07007KT 23/14 A2997 RMK A01 T02290136  RH  056%=      5-min Rain = 0
KFR1 160302Z 06006KT 23/14 A2997 RMK A01 T02280136  RH  056%=      5-min Rain = 0
KFR1 160303Z 05006KT 23/14 A2998 RMK A01 T02270135  RH  056%=      5-min Rain = 0
KFR1 160304Z 06007KT 23/14 A2998 RMK A01 T02270135  RH  056%=      5-min Rain = 0
KFR1 160305Z 06006KT 23/13 A2998 RMK A01 T02260134  RH  056%=      5-min Rain = 0
KFR1 160306Z 07007KT 23/13 A2998 RMK A01 T02250133  RH  056%=      5-min Rain = 0
KFR1 160307Z 07007KT 23/13 A2998 RMK A01 T02250133  RH  056%=      5-min Rain = 0
KFR1 160308Z 07008KT 23/13 A2998 RMK A01 T02250133  RH  056%=      5-min Rain = 0
KFR1 160309Z 07008KT 22/13 A2998 RMK A01 T02240133  RH  056%=      5-min Rain = 0
KFR1 160310Z 07008KT 22/13 A2998 RMK A01 T02230132  RH  056%=      5-min Rain = 0
KFR1 160311Z 07009KT 22/13 A2998 RMK A01 T02230132  RH  056%=      5-min Rain = 0
KFR1 160312Z 06011KT 22/13 A2998 RMK A01 T02230132  RH  056%=      5-min Rain = 0
KFR1 160313Z 05012KT 23/13 A2999 RMK A01 T02250132  RH  056%=      5-min Rain = 0
KFR1 160314Z 05012G17KT 23/13 A2999 RMK A01 T02250133  RH  056%=      5-min Rain = 0
KFR1 160315Z 04019KT 23/13 A2999 RMK A01 T02250132  RH  056%=      5-min Rain = 0
KFR1 160316Z 05020G25KT 22/13 A2999 RMK A01 T02200129  RH  056%=      5-min Rain = 0
KFR1 160317Z 05020G25KT 21/13 A2999 RMK A01 T02100127  RH  059%=      5-min Rain = 0
KFR1 160318Z 04017G23KT 20/13 A2999 RMK A01 T02030125  RH  061%=      5-min Rain = 0
KFR1 160319Z 06015KT 20/13 A2999 RMK A01 T01990126  RH  063%=      5-min Rain = 0
KFR1 160320Z 06015KT 20/13 A2999 RMK A01 T01980126  RH  063%=      5-min Rain = 0
KFR1 160321Z 06014KT 20/13 A2999 RMK A01 T01980125  RH  063%=      5-min Rain = 0
KFR1 160322Z 06013KT 20/13 A2999 RMK A01 T01990125  RH  062%=      5-min Rain = 0
KFR1 160323Z 06015G21KT 20/12 A2999 RMK A01 T01980124  RH  062%=      5-min Rain = 0
KFR1 160324Z 05015G23KT 20/12 A2999 RMK A01 T01970123  RH  062%=      5-min Rain = 0
KFR1 160325Z 04021KT 20/12 A2999 RMK A01 T01960122  RH  062%=      5-min Rain = 0
KFR1 160326Z 04021G26KT 19/12 A2999 RMK A01 T01940120  RH  062%=      5-min Rain = 0
KFR1 160327Z 04017KT 19/12 A2999 RMK A01 T01910119  RH  063%=      5-min Rain = 0
KFR1 160328Z 05014KT 19/12 A2999 RMK A01 T01890119  RH  064%=      5-min Rain = 0
KFR1 160329Z 06016KT 19/12 A2999 RMK A01 T01870118  RH  064%=      5-min Rain = 0
KFR1 160330Z 06015KT 19/12 A2999 RMK A01 T01870118  RH  064%=      5-min Rain = 0
KFR1 160331Z 06015KT 19/12 A2999 RMK A01 T01870118  RH  064%=      5-min Rain = 0
KFR1 160332Z 06014KT 19/12 A2999 RMK A01 T01880118  RH  064%=      5-min Rain = 0
KFR1 160333Z 04012KT 19/12 A2999 RMK A01 T01870118  RH  064%=      5-min Rain = 0
KFR1 160334Z 04014KT 19/12 A30 RMK A01 T01870118  RH  064%=      5-min Rain = 0
KFR1 160335Z 04014KT 19/12 A30 RMK A01 T01870118  RH  064%=      5-min Rain = 0
KFR1 160336Z 04012KT 19/12 A30 RMK A01 T01870118  RH  064%=      5-min Rain = 0
KFR1 160337Z 04013KT 19/12 A30 RMK A01 T01860118  RH  064%=      5-min Rain = 0
KFR1 160338Z 05011KT 19/12 A30 RMK A01 T01860118  RH  064%=      5-min Rain = 0
KFR1 160339Z 06011KT 19/12 A30 RMK A01 T01860118  RH  065%=      5-min Rain = 0
KFR1 160340Z 06010KT 19/12 A30 RMK A01 T01850117  RH  065%=      5-min Rain = 0
KFR1 160341Z 06009KT 19/12 A30 RMK A01 T01850117  RH  064%=      5-min Rain = 0
KFR1 160342Z 06011G16KT 19/12 A2999 RMK A01 T01850117  RH  064%=      5-min Rain = 0
KFR1 160343Z 06012KT 19/12 A30 RMK A01 T01860117  RH  064%=      5-min Rain = 0
KFR1 160344Z 05011KT 19/12 A30 RMK A01 T01860116  RH  064%=      5-min Rain = 0
KFR1 160345Z 06009KT 19/12 A30 RMK A01 T01870116  RH  063%=      5-min Rain = 0
KFR1 160346Z 05008KT 19/12 A30 RMK A01 T01870116  RH  063%=      5-min Rain = 0
KFR1 160347Z 04011KT 19/12 A30 RMK A01 T01860116  RH  064%=      5-min Rain = 0
KFR1 160348Z 04012KT 19/12 A30 RMK A01 T01860116  RH  064%=      5-min Rain = 0
KFR1 160349Z 04011KT 19/12 A30 RMK A01 T01860116  RH  064%=      5-min Rain = 0
KFR1 160350Z 05011KT 19/12 A30 RMK A01 T01860116  RH  064%=      5-min Rain = 0
KFR1 160351Z 05010G16KT 19/12 A30 RMK A01 T01860116  RH  064%=      5-min Rain = 0
KFR1 160352Z 05012KT 19/12 A30 RMK A01 T01860116  RH  064%=      5-min Rain = 0
KFR1 160353Z 05013KT 19/12 A30 RMK A01 T01860116  RH  064%=      5-min Rain = 0
KFR1 160354Z 04016KT 19/12 A30 RMK A01 T01860116  RH  064%=      5-min Rain = 0
KFR1 160355Z 04015KT 19/12 A3001 RMK A01 T01870116  RH  063%=      5-min Rain = 0
KFR1 160356Z 04014G19KT 19/12 A3001 RMK A01 T01870116  RH  063%=      5-min Rain = 0
KFR1 160357Z 03014KT 19/12 A3001 RMK A01 T01870117  RH  064%=      5-min Rain = 0
KFR1 160358Z 04015KT 19/12 A3001 RMK A01 T01880118  RH  063%=      5-min Rain = 0
KFR1 160359Z 03013KT 19/12 A3001 RMK A01 T01890118  RH  063%=      5-min Rain = 0
KFR1 160400Z 03012G18KT 19/12 A3001 RMK A01 T01890119  RH  064%=      5-min Rain = 0
KFR1 160401Z 04011KT 19/12 A3001 RMK A01 T01890119  RH  064%=      5-min Rain = 0
KFR1 160402Z 04013KT 19/12 A3001 RMK A01 T01880119  RH  064%=      5-min Rain = 0
KFR1 160403Z 04012KT 19/12 A3001 RMK A01 T01880119  RH  064%=      5-min Rain = 0
KFR1 160404Z 05013KT 19/12 A3001 RMK A01 T01870119  RH  065%=      5-min Rain = 0
KFR1 160405Z 06013KT 19/12 A3001 RMK A01 T01870119  RH  065%=      5-min Rain = 0
KFR1 160406Z 04013KT 19/12 A3001 RMK A01 T01860119  RH  065%=      5-min Rain = 0
KFR1 160407Z 05011KT 19/12 A3001 RMK A01 T01870120  RH  065%=      5-min Rain = 0
KFR1 160408Z 04012KT 19/12 A3001 RMK A01 T01870120  RH  065%=      5-min Rain = 0
KFR1 160409Z 05012KT 19/12 A3001 RMK A01 T01870119  RH  065%=      5-min Rain = 0
KFR1 160410Z 05010KT 19/12 A3001 RMK A01 T01870120  RH  065%=      5-min Rain = 0
KFR1 160411Z 04010KT 19/12 A3001 RMK A01 T01880120  RH  064%=      5-min Rain = 0
KFR1 160412Z 04009KT 19/12 A3001 RMK A01 T01880120  RH  064%=      5-min Rain = 0
KFR1 160413Z 05008KT 19/12 A3001 RMK A01 T01880120  RH  064%=      5-min Rain = 0
KFR1 160414Z 05007KT 19/12 A3001 RMK A01 T01880119  RH  064%=      5-min Rain = 0
KFR1 160415Z 05007KT 19/12 A3001 RMK A01 T01880119  RH  064%=      5-min Rain = 0
KFR1 160416Z 04008KT 19/12 A3001 RMK A01 T01880119  RH  064%=      5-min Rain = 0
KFR1 160417Z 04009KT 19/12 A3001 RMK A01 T01880119  RH  064%=      5-min Rain = 0
KFR1 160418Z 04008KT 19/12 A3001 RMK A01 T01890119  RH  064%=      5-min Rain = 0
KFR1 160419Z 04009KT 19/12 A3001 RMK A01 T01890118  RH  063%=      5-min Rain = 0
KFR1 160420Z 04009KT 19/12 A3001 RMK A01 T01900118  RH  063%=      5-min Rain = 0
KFR1 160421Z 04009KT 19/12 A3001 RMK A01 T01910117  RH  062%=      5-min Rain = 0
KFR1 160422Z 04008KT 19/12 A3001 RMK A01 T01920117  RH  062%=      5-min Rain = 0
KFR1 160423Z 04008KT 19/12 A3001 RMK A01 T01920117  RH  062%=      5-min Rain = 0
KFR1 160424Z 05007KT 19/12 A3001 RMK A01 T01930117  RH  062%=      5-min Rain = 0
KFR1 160425Z 05008KT 19/12 A3001 RMK A01 T01930117  RH  061%=      5-min Rain = 0
KFR1 160426Z 03007KT 19/12 A3002 RMK A01 T01930117  RH  061%=      5-min Rain = 0
KFR1 160427Z 04008KT 19/12 A3002 RMK A01 T01930117  RH  062%=      5-min Rain = 0
KFR1 160428Z 03008KT 19/12 A3002 RMK A01 T01930118  RH  062%=      5-min Rain = 0
KFR1 160429Z 03008KT 19/12 A3002 RMK A01 T01920117  RH  062%=      5-min Rain = 0
KFR1 160430Z 03010KT 19/12 A3002 RMK A01 T01920118  RH  062%=      5-min Rain = 0
KFR1 160431Z 04011KT 19/12 A3003 RMK A01 T01920118  RH  062%=      5-min Rain = 0
KFR1 160432Z 04014KT 19/12 A3002 RMK A01 T01920118  RH  062%=      5-min Rain = 0
KFR1 160433Z 04014KT 19/12 A3002 RMK A01 T01930120  RH  063%=      5-min Rain = 0
KFR1 160434Z 04013KT 19/12 A3003 RMK A01 T01920121  RH  063%=      5-min Rain = 0
KFR1 160435Z 04011KT 19/12 A3003 RMK A01 T01920122  RH  064%=      5-min Rain = 0
KFR1 160436Z 04014G19KT 19/12 A3003 RMK A01 T01910122  RH  064%=      5-min Rain = 0
KFR1 160437Z 04015KT 19/12 A3003 RMK A01 T01900120  RH  064%=      5-min Rain = 0
KFR1 160438Z 04015KT 19/12 A3003 RMK A01 T01900118  RH  063%=      5-min Rain = 0
KFR1 160439Z 04013KT 19/12 A3003 RMK A01 T01890116  RH  062%=      5-min Rain = 0
KFR1 160440Z 05011KT 19/12 A3003 RMK A01 T01880116  RH  063%=      5-min Rain = 0
KFR1 160441Z 05013KT 19/12 A3003 RMK A01 T01870116  RH  063%=      5-min Rain = 0
KFR1 160442Z 05013KT 19/12 A3004 RMK A01 T01860115  RH  063%=      5-min Rain = 0
KFR1 160443Z 04014KT 19/11 A3004 RMK A01 T01850114  RH  063%=      5-min Rain = 0
KFR1 160444Z 04012KT 19/11 A3004 RMK A01 T01850114  RH  063%=      5-min Rain = 0
KFR1 160445Z 05012KT 19/11 A3004 RMK A01 T01850114  RH  063%=      5-min Rain = 0
KFR1 160446Z 04014G20KT 18/11 A3004 RMK A01 T01840114  RH  064%=      5-min Rain = 0
KFR1 160447Z 05014KT 18/11 A3004 RMK A01 T01840114  RH  064%=      5-min Rain = 0
KFR1 160448Z 04013KT 18/12 A3004 RMK A01 T01840115  RH  064%=      5-min Rain = 0
KFR1 160449Z 04012G17KT 19/12 A3004 RMK A01 T01850115  RH  064%=      5-min Rain = 0
KFR1 160450Z 05012KT 18/12 A3004 RMK A01 T01840115  RH  064%=      5-min Rain = 0
KFR1 160451Z 04011G16KT 18/12 A3004 RMK A01 T01830115  RH  064%=      5-min Rain = 0
KFR1 160452Z 04015G20KT 18/12 A3004 RMK A01 T01830116  RH  065%=      5-min Rain = 0
KFR1 160453Z 04013KT 18/12 A3004 RMK A01 T01820116  RH  065%=      5-min Rain = 0
KFR1 160454Z 05012KT 18/12 A3004 RMK A01 T01820117  RH  066%=      5-min Rain = 0
KFR1 160455Z 05013KT 18/12 A3004 RMK A01 T01810117  RH  066%=      5-min Rain = 0
KFR1 160456Z 04015KT 18/12 A3003 RMK A01 T01800117  RH  067%=      5-min Rain = 0
KFR1 160457Z 04013KT 18/12 A3003 RMK A01 T01800118  RH  067%=      5-min Rain = 0
KFR1 160458Z 04012KT 18/12 A3004 RMK A01 T01790118  RH  068%=      5-min Rain = 0
KFR1 160459Z 04011KT 18/12 A3004 RMK A01 T01780118  RH  068%=      5-min Rain = 0

Page generated in 0.0327 seconds.